DL5623 / N357FC 7700 Squawk Report (18th of May, 2021)

Aircraft E170 Reg No. N357FC Age N/A
Model Emb-170 Jet engines 2 First flight 03-04
Registered 07-18 Rollout 03-04 Delivered 12-04-04
Construction No. 17000018 Line No. N/A Series 100SU
ADSHEX A3FF4E Airline name Delta Connection Owner Republic Airways
Airfield based Indianapolis-International~IN~N First tracked N/A

Flight history for N357FC

Route Flight No Date Playback
La Guardia (LGA) - Louisville International Airport (SDF) DL5761 2021-06-23 01:48:00
La Guardia (LGA) - Port Columbus (CMH) - La Guardia (LGA) DL5623 2021-06-22 22:16:00
Logan International Airport (BOS) - La Guardia (LGA) DL5804 2021-06-22 17:10:00
Nashville Intl (BNA) - Logan International Airport (BOS) DL5635 2021-06-22 14:19:00
Eppley Airfield (OMA) - Nashville Intl (BNA) DL5882 2021-06-22 12:07:00
La Guardia (LGA) - Eppley Airfield (OMA) - La Guardia (LGA) DL5593 2021-06-22 00:24:00
Logan International Airport (BOS) - La Guardia (LGA) DL5654 2021-06-21 15:09:00
Ronald Reagan Washington Natl (DCA) - Logan International Airport (BOS) DL5677 2021-06-21 00:59:00
John F Kennedy Intl (JFK) - Ronald Reagan Washington Natl (DCA) DL5731 2021-06-20 22:49:00
John F Kennedy Intl (JFK) - Raleigh Durham Intl (RDU) - John F Kennedy Intl (JFK) DL5856 2021-06-20 21:11:00
John F Kennedy Intl (JFK) - Ronald Reagan Washington Natl (DCA) - John F Kennedy Intl (JFK) DL5668 2021-06-20 16:04:00
Logan International Airport (BOS) - John F Kennedy Intl (JFK) DL5758 2021-06-20 11:00:00
La Guardia (LGA) - Logan International Airport (BOS) DL5670 2021-06-20 09:52:00
La Guardia (LGA) - Kansas City Intl (MCI) - La Guardia (LGA) DL5720 2021-06-19 21:54:00
Nashville Intl (BNA) - La Guardia (LGA) DL5774 2021-06-19 13:40:00
La Guardia (LGA) - Nashville Intl (BNA) DL5673 2021-06-19 11:47:00
La Guardia (LGA) - Eppley Airfield (OMA) - La Guardia (LGA) DL5593 2021-06-18 23:15:00
Logan International Airport (BOS) - La Guardia (LGA) DL5654 2021-06-18 16:08:00
La Guardia (LGA) - Logan International Airport (BOS) DL5653 2021-06-18 14:00:00
La Guardia (LGA) - Kansas City Intl (MCI) - La Guardia (LGA) DL5686 2021-06-18 11:02:00
Time Lat Lon Altitude Heading Speed Vertical Rate
2021-05-18 22:18:54 GMT 40.661911 -75.426208 200 232 125 -640
2021-05-18 22:18:48 GMT 40.663834 -75.423035 250 232 125 -640
2021-05-18 22:18:39 GMT 40.667175 -75.417542 375 231 127 -832
2021-05-18 22:18:28 GMT 40.671108 -75.411217 500 232 127 -640
2021-05-18 22:18:19 GMT 40.674911 -75.404907 600 232 125 -768
2021-05-18 22:18:08 GMT 40.678509 -75.399048 700 231 125 -704
2021-05-18 22:17:57 GMT 40.682419 -75.392677 825 232 124 -640
2021-05-18 22:17:48 GMT 40.686050 -75.386688 950 232 124 -704
2021-05-18 22:17:37 GMT 40.689774 -75.380569 1,050 231 123 -640
2021-05-18 22:17:26 GMT 40.693634 -75.374329 1,175 232 123 -448
2021-05-18 22:17:16 GMT 40.697128 -75.368523 1,275 232 125 -768
2021-05-18 22:17:06 GMT 40.700809 -75.362526 1,375 231 125 -576
2021-05-18 22:16:55 GMT 40.704903 -75.355850 1,500 232 123 -768
2021-05-18 22:16:46 GMT 40.708282 -75.350342 1,600 233 126 -704
2021-05-18 22:16:36 GMT 40.712173 -75.343750 1,725 232 135 -768
2021-05-18 22:16:24 GMT 40.716541 -75.336563 1,875 232 143 -832
2021-05-18 22:16:21 GMT 40.717987 -75.334229 1,900 232 150 -960
2021-05-18 22:16:15 GMT 40.720551 -75.329956 2,000 232 152 -960
2021-05-18 22:16:10 GMT 40.722828 -75.326263 2,050 231 154 -960
2021-05-18 22:16:05 GMT 40.725155 -75.322388 2,150 232 157 -768
2021-05-18 22:15:54 GMT 40.729843 -75.314636 2,325 232 161 -896
2021-05-18 22:15:44 GMT 40.734787 -75.306274 2,450 232 168 -704
2021-05-18 22:15:33 GMT 40.740097 -75.297974 2,575 229 175 -640
2021-05-18 22:15:30 GMT 40.742065 -75.295105 2,625 228 179 -896
2021-05-18 22:15:24 GMT 40.745777 -75.289871 2,700 228 181 -256
2021-05-18 22:15:20 GMT 40.747406 -75.287560 2,700 225 183 -64
2021-05-18 22:15:13 GMT 40.752014 -75.281631 2,725 222 185 64
2021-05-18 22:15:03 GMT 40.759045 -75.274574 2,700 211 198 -448
2021-05-18 22:14:57 GMT 40.764118 -75.271202 2,700 207 201 -256
2021-05-18 22:14:53 GMT 40.767883 -75.269348 2,725 199 209 -256
2021-05-18 22:14:50 GMT 40.770309 -75.268272 2,725 198 213 320
2021-05-18 22:14:42 GMT 40.777573 -75.265335 2,700 196 215 128
2021-05-18 22:14:39 GMT 40.780643 -75.264214 2,700 151 226 64
2021-05-18 22:14:32 GMT 40.787521 -75.262451 2,700 185 216 -448
2021-05-18 22:14:22 GMT 40.797775 -75.263023 2,725 168 218 0
2021-05-18 22:14:15 GMT 40.804138 -75.265930 2,700 151 226 64
2021-05-18 22:14:11 GMT 40.808250 -75.269394 2,700 141 232 -64
2021-05-18 22:14:01 GMT 40.815262 -75.280212 2,725 119 246 -128
2021-05-18 22:13:50 GMT 40.819199 -75.295410 2,725 97 260 64
2021-05-18 22:13:41 GMT 40.818741 -75.311584 2,725 77 271 0
2021-05-18 22:13:30 GMT 40.813614 -75.327698 2,700 56 274 -128
2021-05-18 22:13:25 GMT 40.810158 -75.333817 2,700 51 274 -64
2021-05-18 22:13:20 GMT 40.805695 -75.340759 2,725 49 275 -128
2021-05-18 22:13:14 GMT 40.801220 -75.347549 2,725 49 274 0
2021-05-18 22:13:10 GMT 40.796890 -75.354164 2,725 49 273 64
2021-05-18 22:12:59 GMT 40.788712 -75.366455 2,700 48 273 64
2021-05-18 22:12:56 GMT 40.786057 -75.370483 2,700 48 274 -192
2021-05-18 22:12:49 GMT 40.779808 -75.379822 2,725 47 274 -192
2021-05-18 22:12:45 GMT 40.776855 -75.384033 2,725 47 274 -320
2021-05-18 22:12:39 GMT 40.771088 -75.391663 2,700 40 272 192
2021-05-18 22:12:36 GMT 40.767929 -75.395081 2,700 32 271 -256
2021-05-18 22:12:29 GMT 40.759789 -75.400978 2,700 23 270 192
2021-05-18 22:12:21 GMT 40.752182 -75.405151 3,000 22 269 -2112
2021-05-18 22:12:18 GMT 40.747559 -75.407593 2,775 22 271 -576
2021-05-18 22:12:14 GMT 40.743542 -75.409782 2,825 22 269 -1472
2021-05-18 22:12:08 GMT 40.736050 -75.413780 3,025 22 269 -2112
2021-05-18 22:12:05 GMT 40.731998 -75.416023 3,100 22 267 -2496
2021-05-18 22:11:58 GMT 40.724350 -75.420166 3,375 22 267 -2432
2021-05-18 22:11:53 GMT 40.719566 -75.422707 3,550 22 267 -2496
2021-05-18 22:11:47 GMT 40.712494 -75.426453 3,850 21 267 -2368
2021-05-18 22:11:43 GMT 40.706718 -75.429504 4,000 21 267 -2048
2021-05-18 22:11:36 GMT 40.699493 -75.433228 4,475 18 269 -2368
2021-05-18 22:11:32 GMT 40.694942 -75.435562 4,350 20 268 -2368
2021-05-18 22:11:26 GMT 40.688553 -75.438660 4,575 18 269 -2368
2021-05-18 22:11:23 GMT 40.684341 -75.440430 4,700 16 267 -2496
2021-05-18 22:11:20 GMT 40.680603 -75.441681 5,275 356 260 -2944
2021-05-18 22:11:17 GMT 40.676228 -75.442490 4,975 4 265 -2432
2021-05-18 22:11:13 GMT 40.671616 -75.442627 5,150 0 264 -2560
2021-05-18 22:11:09 GMT 40.666824 -75.442238 5,325 356 261 -2816
2021-05-18 22:11:06 GMT 40.663742 -75.441895 5,450 355 261 -2688
2021-05-18 22:11:02 GMT 40.657379 -75.441101 5,650 355 262 -2240
2021-05-18 22:10:59 GMT 40.655502 -75.440918 5,700 355 263 -2048
2021-05-18 22:10:54 GMT 40.648853 -75.440056 5,875 355 265 -1856
2021-05-18 22:10:49 GMT 40.643234 -75.439331 6,025 355 265 -1920
2021-05-18 22:10:44 GMT 40.636612 -75.438499 6,225 355 264 -2496
2021-05-18 22:10:40 GMT 40.631260 -75.437813 6,425 355 263 -2816
2021-05-18 22:10:33 GMT 40.624191 -75.436951 6,700 355 263 -2816
2021-05-18 22:10:29 GMT 40.618595 -75.436249 6,925 355 263 -2624
2021-05-18 22:10:25 GMT 40.613525 -75.435669 7,100 355 263 -2624
2021-05-18 22:10:22 GMT 40.609940 -75.435249 7,225 355 263 -2624
2021-05-18 22:10:18 GMT 40.605743 -75.434692 7,400 348 262 -2560
2021-05-18 22:10:12 GMT 40.598721 -75.433311 7,650 350 262 -2624
2021-05-18 22:10:08 GMT 40.592285 -75.431091 7,950 340 263 -2496
2021-05-18 22:10:05 GMT 40.589127 -75.429321 8,225 310 269 -2432
2021-05-18 22:10:02 GMT 40.587341 -75.428223 8,050 330 264 -2432
2021-05-18 22:09:57 GMT 40.582031 -75.423828 10,000 247 292 -2624
2021-05-18 22:09:52 GMT 40.577408 -75.418823 8,425 316 267 -2176
2021-05-18 22:09:46 GMT 40.572189 -75.410645 8,675 303 269 -2560
2021-05-18 22:09:42 GMT 40.569717 -75.405289 8,850 297 271 -2368
2021-05-18 22:09:37 GMT 40.566597 -75.395485 9,075 290 274 -2048
2021-05-18 22:09:34 GMT 40.565807 -75.391556 9,300 270 284 -2240
2021-05-18 22:09:31 GMT 40.565369 -75.388672 9,200 281 279 -2112
2021-05-18 22:09:27 GMT 40.564735 -75.380066 9,400 268 284 -2240
2021-05-18 22:09:26 GMT 40.564728 -75.378479 9,425 268 284 -2240
2021-05-18 22:09:22 GMT 40.565109 -75.371765 9,650 258 288 -2304
2021-05-18 22:09:16 GMT 40.567017 -75.361595 9,800 249 292 -2560
2021-05-18 22:09:13 GMT 40.568344 -75.357300 10,000 238 296 -2496
2021-05-18 22:09:10 GMT 40.569950 -75.353104 10,025 242 293 -2688
2021-05-18 22:09:05 GMT 40.574371 -75.344238 10,275 235 298 -2304
2021-05-18 22:09:01 GMT 40.577545 -75.338440 10,400 234 302 -1984
2021-05-18 22:08:57 GMT 40.581028 -75.332253 10,575 234 306 -1984
2021-05-18 22:08:54 GMT 40.584229 -75.326538 10,700 233 307 -2432
2021-05-18 22:08:51 GMT 40.585602 -75.324158 10,750 233 308 -2688
2021-05-18 22:08:48 GMT 40.590340 -75.316147 10,825 233 308 -2752
2021-05-18 22:08:45 GMT 40.590340 -75.316147 11,000 232 308 -3072
2021-05-18 22:08:43 GMT 40.593132 -75.311531 11,200 231 309 -3200
2021-05-18 22:08:40 GMT 40.595089 -75.308472 12,225 211 315 -3008
2021-05-18 22:08:36 GMT 40.604004 -75.296997 11,675 222 311 -3264
2021-05-18 22:08:33 GMT 40.604004 -75.296997 11,775 219 312 -3136
2021-05-18 22:08:30 GMT 40.606445 -75.294617 11,875 216 314 -2816
2021-05-18 22:08:26 GMT 40.611099 -75.290588 12,050 212 314 -2816
2021-05-18 22:08:23 GMT 40.615944 -75.286751 12,275 211 314 -2944
2021-05-18 22:08:20 GMT 40.618504 -75.284813 12,325 210 315 -2688
2021-05-18 22:08:17 GMT 40.622452 -75.281921 12,750 208 317 -1856
2021-05-18 22:08:14 GMT 40.626369 -75.279381 12,525 200 320 -1664
2021-05-18 22:08:12 GMT 40.629364 -75.277710 12,600 200 320 -1664
2021-05-18 22:08:09 GMT 40.633301 -75.275879 12,650 197 321 -1344
2021-05-18 22:08:05 GMT 40.639359 -75.273949 12,725 188 326 -320
2021-05-18 22:08:02 GMT 40.643921 -75.273071 12,725 185 328 -128
2021-05-18 22:07:59 GMT 40.648178 -75.272705 12,750 131 326 -64
2021-05-18 22:07:55 GMT 40.654266 -75.273010 12,750 170 329 -128
2021-05-18 22:07:52 GMT 40.658817 -75.273766 12,750 167 329 -128
2021-05-18 22:07:49 GMT 40.662689 -75.274902 12,775 131 326 -64
2021-05-18 22:07:45 GMT 40.668827 -75.277512 12,750 153 329 0
2021-05-18 22:07:40 GMT 40.676743 -75.282593 12,750 148 328 64
2021-05-18 22:07:32 GMT 40.688370 -75.295044 12,750 133 326 -128
2021-05-18 22:07:29 GMT 40.688370 -75.295044 12,750 132 326 -128
2021-05-18 22:07:21 GMT 40.695648 -75.308289 12,750 117 333 128
2021-05-18 22:07:18 GMT 40.697735 -75.313652 12,750 114 335 64
2021-05-18 22:07:14 GMT 40.699970 -75.321205 12,750 106 340 -64
2021-05-18 22:07:11 GMT 40.701088 -75.326012 12,750 104 344 128
2021-05-18 22:07:08 GMT 40.702332 -75.332092 12,750 104 344 128
2021-05-18 22:07:04 GMT 40.704346 -75.342102 12,750 104 352 -192
2021-05-18 22:07:00 GMT 40.706177 -75.351196 12,750 104 352 -192
2021-05-18 22:06:57 GMT 40.707092 -75.355537 12,750 104 353 -128
2021-05-18 22:06:53 GMT 40.708767 -75.363899 12,750 104 353 -64
2021-05-18 22:06:50 GMT 40.710388 -75.372009 12,750 104 353 0
2021-05-18 22:06:47 GMT 40.711258 -75.376221 12,775 104 353 -64
2021-05-18 22:06:43 GMT 40.712952 -75.384705 12,750 104 354 128
2021-05-18 22:06:40 GMT 40.714645 -75.393127 12,750 104 354 64
2021-05-18 22:06:37 GMT 40.715469 -75.397278 12,750 105 355 -128
2021-05-18 22:06:32 GMT 40.717896 -75.409790 12,750 104 354 128
2021-05-18 22:06:29 GMT 40.719105 -75.415901 12,750 104 354 64
2021-05-18 22:06:26 GMT 40.720871 -75.424805 12,750 104 354 64
2021-05-18 22:06:22 GMT 40.721558 -75.428162 12,750 105 355 -64
2021-05-18 22:06:19 GMT 40.723385 -75.436935 12,750 105 354 -64
2021-05-18 22:06:16 GMT 40.724037 -75.440117 12,750 105 355 64
2021-05-18 22:06:13 GMT 40.726040 -75.449417 12,750 105 355 192
2021-05-18 22:06:09 GMT 40.727482 -75.456100 12,750 106 355 -192
2021-05-18 22:06:06 GMT 40.729065 -75.463013 12,750 106 355 -192
2021-05-18 22:06:02 GMT 40.730621 -75.469849 12,750 107 356 0
2021-05-18 22:05:59 GMT 40.732407 -75.477295 12,750 107 357 128
2021-05-18 22:05:56 GMT 40.733597 -75.482300 12,750 108 357 64
2021-05-18 22:05:51 GMT 40.736141 -75.492432 12,750 108 357 0
2021-05-18 22:05:48 GMT 40.738586 -75.502136 12,750 108 357 -128
2021-05-18 22:05:45 GMT 40.739227 -75.504639 12,750 108 356 -64
2021-05-18 22:05:42 GMT 40.741215 -75.512466 12,750 108 356 0
2021-05-18 22:05:39 GMT 40.743076 -75.519829 12,750 108 356 64
2021-05-18 22:05:35 GMT 40.744812 -75.526855 12,750 108 356 64
2021-05-18 22:05:32 GMT 40.748108 -75.540039 12,750 108 356 -64
2021-05-18 22:05:29 GMT 40.748108 -75.540039 12,750 108 356 -64
2021-05-18 22:05:26 GMT 40.749454 -75.545364 12,750 108 356 -64
2021-05-18 22:05:19 GMT 40.753098 -75.559814 12,750 108 356 -64
2021-05-18 22:05:16 GMT 40.754902 -75.567024 12,750 108 355 -64
2021-05-18 22:05:11 GMT 40.757137 -75.576073 12,750 108 353 -128
2021-05-18 22:05:08 GMT 40.758682 -75.582214 12,750 108 355 64
2021-05-18 22:05:05 GMT 40.760208 -75.588371 12,750 108 354 -64
2021-05-18 22:04:58 GMT 40.764305 -75.604729 12,750 108 353 -64
2021-05-18 22:04:53 GMT 40.766399 -75.613091 12,750 108 354 -128
2021-05-18 22:04:50 GMT 40.767746 -75.618408 12,750 108 353 -128
2021-05-18 22:04:45 GMT 40.772827 -75.638916 12,750 108 354 64
2021-05-18 22:04:40 GMT 40.772827 -75.638916 12,750 108 352 -64
2021-05-18 22:04:37 GMT 40.774593 -75.645866 12,750 108 352 -128
2021-05-18 22:04:34 GMT 40.776123 -75.651978 12,750 108 355 -1920
2021-05-18 22:04:29 GMT 40.778320 -75.660828 12,750 108 353 0
2021-05-18 22:04:25 GMT 40.780792 -75.670776 12,750 108 354 0
2021-05-18 22:04:21 GMT 40.782742 -75.678574 12,750 108 354 128
2021-05-18 22:04:17 GMT 40.785049 -75.687927 12,750 108 354 64
2021-05-18 22:04:13 GMT 40.788837 -75.703102 12,750 108 354 -64
2021-05-18 22:04:09 GMT 40.788837 -75.703102 12,750 108 353 128
2021-05-18 22:04:06 GMT 40.790096 -75.708160 13,175 108 355 -1920
2021-05-18 22:04:03 GMT 40.791824 -75.715149 12,750 108 353 0
2021-05-18 22:03:59 GMT 40.794006 -75.723892 12,750 108 352 -128
2021-05-18 22:03:56 GMT 40.795868 -75.731316 12,750 108 352 -128
2021-05-18 22:03:53 GMT 40.796768 -75.734985 12,975 107 357 -2048
2021-05-18 22:03:50 GMT 40.798187 -75.740723 12,975 107 357 -2048
2021-05-18 22:03:46 GMT 40.800568 -75.750107 12,750 108 352 -192
2021-05-18 22:03:42 GMT 40.802944 -75.759781 12,775 108 353 -320
2021-05-18 22:03:35 GMT 40.805923 -75.771667 12,850 108 353 -896
2021-05-18 22:03:32 GMT 40.807461 -75.777885 12,875 108 354 -1664
2021-05-18 22:03:24 GMT 40.811646 -75.794861 13,150 108 355 -2176
2021-05-18 22:03:21 GMT 40.812836 -75.799744 13,350 107 355 -1920
2021-05-18 22:03:18 GMT 40.814850 -75.807922 13,350 108 355 -1920
2021-05-18 22:03:11 GMT 40.818100 -75.821106 13,575 107 355 -1984
2021-05-18 22:03:06 GMT 40.821098 -75.833252 13,825 108 357 -1984
2021-05-18 22:03:02 GMT 40.822914 -75.840744 13,900 108 358 -1984
2021-05-18 22:02:59 GMT 40.824234 -75.846069 14,000 108 359 -2048
2021-05-18 22:02:55 GMT 40.826797 -75.856384 14,150 108 362 -2048
2021-05-18 22:02:51 GMT 40.829086 -75.865540 14,525 107 366 -2304
2021-05-18 22:02:47 GMT 40.830643 -75.871834 14,400 108 363 -2112
2021-05-18 22:02:44 GMT 40.832176 -75.877884 14,675 107 366 -2304
2021-05-18 22:02:39 GMT 40.834534 -75.887512 15,025 107 366 -2304
2021-05-18 22:02:36 GMT 40.836136 -75.894051 14,850 108 368 -2560
2021-05-18 22:02:33 GMT 40.837738 -75.900452 14,900 108 368 -2496
2021-05-18 22:02:30 GMT 40.840092 -75.910034 15,100 107 369 -2688
2021-05-18 22:02:25 GMT 40.842464 -75.919708 15,300 107 369 -2816
2021-05-18 22:02:22 GMT 40.844238 -75.926941 15,550 108 370 -2752
2021-05-18 22:02:19 GMT 40.844978 -75.929947 15,550 108 370 -2752
2021-05-18 22:02:16 GMT 40.847031 -75.938171 15,700 108 370 -2688
2021-05-18 22:02:13 GMT 40.848427 -75.943741 15,950 107 372 -2432
2021-05-18 22:02:09 GMT 40.850986 -75.954102 16,025 107 372 -2432
2021-05-18 22:02:06 GMT 40.852341 -75.959778 16,200 107 373 -2304
2021-05-18 22:02:03 GMT 40.853733 -75.965401 16,400 107 373 -2240
2021-05-18 22:02:00 GMT 40.855820 -75.973816 16,475 107 374 -2240
2021-05-18 22:01:57 GMT 40.857742 -75.981628 16,875 107 375 -2176
2021-05-18 22:01:51 GMT 40.860577 -75.993240 16,775 107 376 -2240
2021-05-18 22:01:48 GMT 40.862110 -75.999550 16,800 107 379 -2176
2021-05-18 22:01:45 GMT 40.863182 -76.003853 17,000 107 377 -2176
2021-05-18 22:01:42 GMT 40.864857 -76.010719 17,000 107 377 -2240
2021-05-18 22:01:37 GMT 40.870304 -76.032822 17,575 107 379 -2176
2021-05-18 22:01:33 GMT 40.870304 -76.032822 17,350 107 379 -2112
2021-05-18 22:01:28 GMT 40.872681 -76.042557 17,550 107 379 -2176
2021-05-18 22:01:24 GMT 40.874496 -76.049927 17,625 107 380 -1920
2021-05-18 22:01:21 GMT 40.876122 -76.056664 17,800 107 380 -1728
2021-05-18 22:01:18 GMT 40.877975 -76.064148 17,800 107 380 -1728
2021-05-18 22:01:14 GMT 40.880814 -76.075623 17,950 107 380 -1216
2021-05-18 22:01:11 GMT 40.881866 -76.080017 17,975 107 379 -256
2021-05-18 22:01:08 GMT 40.883430 -76.086502 18,000 107 379 -64
2021-05-18 22:01:04 GMT 40.885201 -76.093742 18,000 107 378 -64
2021-05-18 22:01:01 GMT 40.887157 -76.101669 18,000 107 378 -64
2021-05-18 22:00:58 GMT 40.889297 -76.110474 18,000 107 378 -64
2021-05-18 22:00:54 GMT 40.891342 -76.118835 18,000 108 378 0
2021-05-18 22:00:51 GMT 40.892975 -76.125389 18,000 108 378 0
2021-05-18 22:00:47 GMT 40.894650 -76.132317 18,000 107 376 -64
2021-05-18 22:00:44 GMT 40.896652 -76.140495 18,000 107 378 64
2021-05-18 22:00:41 GMT 40.898003 -76.145866 18,000 107 378 64
2021-05-18 22:00:37 GMT 40.900681 -76.156860 18,000 107 378 0
2021-05-18 22:00:33 GMT 40.902241 -76.163345 18,000 107 377 -64
2021-05-18 22:00:30 GMT 40.903496 -76.168587 18,000 107 376 -64
2021-05-18 22:00:26 GMT 40.906036 -76.178894 18,000 107 376 64
2021-05-18 22:00:22 GMT 40.908142 -76.187622 18,000 107 376 0
2021-05-18 22:00:19 GMT 40.909733 -76.194183 18,000 107 376 0
2021-05-18 22:00:15 GMT 40.911644 -76.201981 18,000 107 376 -64
2021-05-18 22:00:12 GMT 40.914017 -76.211723 18,000 107 376 -128
2021-05-18 22:00:09 GMT 40.914856 -76.215218 18,000 107 377 -128
2021-05-18 22:00:05 GMT 40.917114 -76.224487 19,800 107 378 -448
2021-05-18 22:00:01 GMT 40.919495 -76.234131 18,075 107 378 -960
2021-05-18 21:59:58 GMT 40.920547 -76.238525 18,125 107 377 -1600
2021-05-18 21:59:55 GMT 40.922165 -76.245117 18,275 107 378 -1728
2021-05-18 21:59:52 GMT 40.924305 -76.253983 18,300 107 378 -1728
2021-05-18 21:59:49 GMT 40.925446 -76.258667 18,375 107 379 -1664
2021-05-18 21:59:45 GMT 40.928169 -76.269836 18,500 107 380 -1600
2021-05-18 21:59:42 GMT 40.930023 -76.277466 18,600 107 380 -1664
2021-05-18 21:59:37 GMT 40.931847 -76.285133 18,725 107 381 -1728
2021-05-18 21:59:34 GMT 40.933456 -76.291687 18,775 107 382 -1728
2021-05-18 21:59:31 GMT 40.935524 -76.300171 18,900 107 383 -1664
2021-05-18 21:59:28 GMT 40.936596 -76.304733 18,950 107 383 -1728
2021-05-18 21:59:25 GMT 40.939247 -76.315529 19,100 107 384 -1728
2021-05-18 21:59:21 GMT 40.941391 -76.324455 19,200 107 385 -1728
2021-05-18 21:59:17 GMT 40.942692 -76.329826 19,250 107 385 -1728
2021-05-18 21:59:14 GMT 40.944603 -76.337624 19,525 107 388 -1728
2021-05-18 21:59:09 GMT 40.947304 -76.348679 19,575 107 387 -1792
2021-05-18 21:59:06 GMT 40.949024 -76.355728 19,600 107 388 -1792
2021-05-18 21:59:03 GMT 40.950714 -76.362732 19,700 107 388 -1728
2021-05-18 21:59:00 GMT 40.952866 -76.371765 19,800 107 389 -1664
2021-05-18 21:58:57 GMT 40.953964 -76.376282 20,000 107 390 -1728
2021-05-18 21:58:54 GMT 40.955822 -76.384010 20,075 107 392 -1728
2021-05-18 21:58:49 GMT 40.958359 -76.394531 20,125 107 391 -1728
2021-05-18 21:58:46 GMT 40.959824 -76.400551 20,200 107 391 -1728
2021-05-18 21:58:42 GMT 40.962620 -76.412346 20,300 107 392 -1728
2021-05-18 21:58:39 GMT 40.963669 -76.416565 20,375 107 392 -1728
2021-05-18 21:58:35 GMT 40.965969 -76.426140 20,475 107 392 -1728
2021-05-18 21:58:32 GMT 40.967319 -76.431633 20,600 107 393 -1728
2021-05-18 21:58:29 GMT 40.969208 -76.439514 20,725 107 394 -1792
2021-05-18 21:58:26 GMT 40.970947 -76.446716 20,750 107 395 -1728
2021-05-18 21:58:22 GMT 40.973145 -76.455872 20,975 107 398 -1792
2021-05-18 21:58:18 GMT 40.975891 -76.467224 21,000 107 397 -1792
2021-05-18 21:58:15 GMT 40.977329 -76.473206 21,075 107 398 -1792
2021-05-18 21:58:12 GMT 40.978912 -76.479759 21,150 107 400 -1856
2021-05-18 21:58:09 GMT 40.980331 -76.485596 21,275 107 401 -1792
2021-05-18 21:58:06 GMT 40.982727 -76.495621 21,375 107 402 -1792
2021-05-18 21:58:03 GMT 40.983799 -76.500175 21,425 107 402 -1728
2021-05-18 21:57:59 GMT 40.986126 -76.509727 21,525 107 403 -1792
2021-05-18 21:57:55 GMT 40.988361 -76.519150 21,725 107 404 -1792
2021-05-18 21:57:50 GMT 40.991409 -76.531860 21,750 107 405 -1792
2021-05-18 21:57:47 GMT 40.993195 -76.539429 21,925 107 405 -1792
2021-05-18 21:57:44 GMT 40.995110 -76.547493 22,000 107 406 -1792
2021-05-18 21:57:40 GMT 40.997112 -76.556046 22,125 107 406 -1792
2021-05-18 21:57:37 GMT 40.998779 -76.562927 22,200 107 406 -1728
2021-05-18 21:57:33 GMT 41.000793 -76.571472 22,300 107 406 -1792
2021-05-18 21:57:30 GMT 41.002441 -76.578369 22,400 107 406 -1792
2021-05-18 21:57:27 GMT 41.006004 -76.593246 22,550 107 408 -1856
2021-05-18 21:57:24 GMT 41.006004 -76.593246 22,600 107 408 -1792
2021-05-18 21:57:21 GMT 41.007633 -76.599930 22,875 106 408 -1856
2021-05-18 21:57:18 GMT 41.009125 -76.606140 22,775 107 408 -1856
2021-05-18 21:57:15 GMT 41.013840 -76.626160 23,025 105 408 -1792
2021-05-18 21:57:11 GMT 41.013840 -76.626160 23,000 106 409 -1856
2021-05-18 21:57:08 GMT 41.015076 -76.631775 23,075 106 408 -1856
2021-05-18 21:57:04 GMT 41.017315 -76.642059 23,200 104 408 -1792
2021-05-18 21:57:00 GMT 41.018829 -76.649292 23,300 105 408 -1792
2021-05-18 21:56:56 GMT 41.021164 -76.660950 23,800 101 409 -1792
2021-05-18 21:56:51 GMT 41.022995 -76.670654 23,575 103 408 -1856
2021-05-18 21:56:45 GMT 41.025787 -76.686462 23,800 101 409 -1792
2021-05-18 21:56:41 GMT 41.027184 -76.694809 24,025 100 410 -1792
2021-05-18 21:56:37 GMT 41.029129 -76.707092 24,025 100 409 -1728
2021-05-18 21:56:33 GMT 41.030582 -76.717407 24,150 100 410 -1792
2021-05-18 21:56:30 GMT 41.032562 -76.731750 24,225 100 411 -1792
2021-05-18 21:56:26 GMT 41.032562 -76.731750 24,300 100 411 -1792
2021-05-18 21:56:22 GMT 41.034027 -76.742676 24,450 100 412 -1856
2021-05-18 21:56:19 GMT 41.035126 -76.750610 24,550 100 413 -1856
2021-05-18 21:56:14 GMT 41.036915 -76.763847 24,700 100 414 -1792
2021-05-18 21:56:09 GMT 41.038174 -76.773026 24,825 100 415 -1856
2021-05-18 21:56:06 GMT 41.039474 -76.782532 24,925 100 416 -1920
2021-05-18 21:56:03 GMT 41.040455 -76.789940 25,075 100 417 -1856
2021-05-18 21:56:00 GMT 41.041901 -76.800598 25,150 100 417 -1856
2021-05-18 21:55:56 GMT 41.043091 -76.809448 25,250 100 417 -1856
2021-05-18 21:55:52 GMT 41.044052 -76.816711 25,350 100 417 -1792
2021-05-18 21:55:49 GMT 41.045242 -76.825806 25,450 100 418 -1856
2021-05-18 21:55:45 GMT 41.046413 -76.834320 25,550 100 418 -1856
2021-05-18 21:55:41 GMT 41.047623 -76.843498 25,800 100 418 -1920
2021-05-18 21:55:38 GMT 41.048676 -76.851196 25,800 100 418 -1856
2021-05-18 21:55:35 GMT 41.049950 -76.860847 25,900 100 419 -1856
2021-05-18 21:55:29 GMT 41.052338 -76.878723 26,100 100 419 -1856
2021-05-18 21:55:22 GMT 41.054672 -76.895935 26,325 100 421 -1920
2021-05-18 21:55:17 GMT 41.057072 -76.913658 26,575 100 422 -1856
2021-05-18 21:55:14 GMT 41.057072 -76.913658 26,525 100 421 -1920
2021-05-18 21:55:11 GMT 41.058189 -76.922028 26,675 100 422 -1856
2021-05-18 21:55:08 GMT 41.059307 -76.930267 26,750 100 422 -1856
2021-05-18 21:55:02 GMT 41.061539 -76.947144 26,950 100 424 -1792
2021-05-18 21:54:56 GMT 41.063126 -76.958733 27,075 100 425 -1856
2021-05-18 21:54:53 GMT 41.063961 -76.965096 27,150 99 426 -1856
2021-05-18 21:54:49 GMT 41.065453 -76.976456 27,300 99 427 -1856
2021-05-18 21:54:44 GMT 41.067444 -76.991455 27,475 99 429 -1920
2021-05-18 21:54:41 GMT 41.068619 -77.000237 27,575 99 430 -1920
2021-05-18 21:54:38 GMT 41.069317 -77.005424 28,300 100 431 -1920
2021-05-18 21:54:33 GMT 41.071133 -77.019157 27,800 99 433 -1920
2021-05-18 21:54:30 GMT 41.071968 -77.025520 27,900 99 435 -1984
2021-05-18 21:54:26 GMT 41.073784 -77.039131 28,050 100 435 -1984
2021-05-18 21:54:22 GMT 41.074902 -77.047554 28,150 100 436 -1984
2021-05-18 21:54:19 GMT 41.075684 -77.053345 28,250 100 437 -1984
2021-05-18 21:54:16 GMT 41.076965 -77.062744 28,325 99 439 -1984
2021-05-18 21:54:13 GMT 41.079323 -77.080582 28,875 100 445 -1984
2021-05-18 21:54:10 GMT 41.079323 -77.080582 28,575 100 442 -1984
2021-05-18 21:54:07 GMT 41.080303 -77.088005 28,750 100 446 -1984
2021-05-18 21:54:03 GMT 41.081932 -77.099991 28,875 100 446 -1984
2021-05-18 21:53:56 GMT 41.084152 -77.116699 28,950 100 448 -1984
2021-05-18 21:53:52 GMT 41.085846 -77.129639 29,275 99 450 -2048
2021-05-18 21:53:49 GMT 41.086910 -77.137756 29,275 99 450 -2048
2021-05-18 21:53:46 GMT 41.087845 -77.144623 29,400 99 452 -2048
2021-05-18 21:53:43 GMT 41.089146 -77.154488 29,475 99 452 -2048
2021-05-18 21:53:39 GMT 41.090515 -77.164673 29,625 99 453 -1984
2021-05-18 21:53:36 GMT 41.091290 -77.170906 29,625 99 453 -1984
2021-05-18 21:53:31 GMT 41.093124 -77.184814 30,150 99 454 -1984
2021-05-18 21:53:27 GMT 41.094826 -77.197617 30,000 99 455 -1984
2021-05-18 21:53:23 GMT 41.096268 -77.208603 30,125 99 457 -2176
2021-05-18 21:53:20 GMT 41.097248 -77.216095 30,225 99 456 -1984
2021-05-18 21:53:16 GMT 41.098598 -77.226143 30,350 99 457 -2240
2021-05-18 21:53:11 GMT 41.100643 -77.241692 30,550 99 458 -2048
2021-05-18 21:53:05 GMT 41.102280 -77.254211 30,700 99 458 -2048
2021-05-18 21:53:00 GMT 41.104836 -77.273834 30,975 99 459 -1984
2021-05-18 21:52:55 GMT 41.106491 -77.286682 31,125 99 459 -2048
2021-05-18 21:52:52 GMT 41.107162 -77.291878 31,225 99 459 -1984
2021-05-18 21:52:49 GMT 41.108185 -77.299683 31,250 99 459 -2048
2021-05-18 21:52:44 GMT 41.109909 -77.312851 31,400 99 459 -1984
2021-05-18 21:52:40 GMT 41.112030 -77.329102 31,625 99 459 -2048
2021-05-18 21:52:37 GMT 41.112843 -77.335258 31,675 99 459 -2048
2021-05-18 21:52:34 GMT 41.113495 -77.340271 31,725 99 459 -2048
2021-05-18 21:52:30 GMT 41.115509 -77.355835 31,925 99 460 -1984
2021-05-18 21:52:27 GMT 41.116241 -77.361389 31,975 99 461 -1984
2021-05-18 21:52:23 GMT 41.117706 -77.372498 32,125 99 460 -1984
2021-05-18 21:52:18 GMT 41.119492 -77.386108 32,300 99 461 -2048
2021-05-18 21:52:14 GMT 41.121094 -77.398315 32,450 99 462 -2048
2021-05-18 21:52:11 GMT 41.122101 -77.406189 32,525 99 462 -2048
2021-05-18 21:52:07 GMT 41.123363 -77.415970 32,675 99 447 0
2021-05-18 21:52:03 GMT 41.124847 -77.427612 32,775 99 458 -1792
2021-05-18 21:51:59 GMT 41.126575 -77.441132 32,975 99 448 -448
2021-05-18 21:51:52 GMT 41.128647 -77.457153 33,000 99 448 -448
2021-05-18 21:51:48 GMT 41.129929 -77.466980 33,000 99 447 64
2021-05-18 21:51:45 GMT 41.131165 -77.476746 33,000 99 447 64
2021-05-18 21:51:42 GMT 41.132347 -77.485825 33,000 99 447 0
2021-05-18 21:51:39 GMT 41.134232 -77.500488 33,000 99 447 0
2021-05-18 21:51:36 GMT 41.134232 -77.500488 33,000 99 447 0
2021-05-18 21:51:33 GMT 41.135746 -77.511978 33,000 99 447 -64
2021-05-18 21:51:29 GMT 41.136658 -77.519043 33,000 99 447 -64
2021-05-18 21:51:26 GMT 41.138123 -77.530701 33,000 99 447 0
2021-05-18 21:51:23 GMT 41.139050 -77.538010 33,000 99 447 0
2021-05-18 21:51:19 GMT 41.140308 -77.547745 33,000 99 447 0
2021-05-18 21:51:16 GMT 41.141510 -77.556885 33,000 99 447 64
2021-05-18 21:51:11 GMT 41.143021 -77.568787 33,000 99 447 64
2021-05-18 21:51:08 GMT 41.144218 -77.577896 33,000 99 446 0
2021-05-18 21:51:05 GMT 41.145081 -77.584961 33,000 99 446 64
2021-05-18 21:51:02 GMT 41.146591 -77.596436 33,000 99 446 64
2021-05-18 21:50:58 GMT 41.148560 -77.612061 33,000 99 446 -64
2021-05-18 21:50:55 GMT 41.148560 -77.612061 33,000 99 446 0
2021-05-18 21:50:48 GMT 41.150803 -77.629517 33,000 99 446 0
2021-05-18 21:50:45 GMT 41.152451 -77.642395 33,000 99 447 -64
2021-05-18 21:50:40 GMT 41.153824 -77.653198 33,000 99 447 0
2021-05-18 21:50:37 GMT 41.154648 -77.659729 33,000 99 447 0
2021-05-18 21:50:34 GMT 41.155746 -77.668335 33,000 99 447 0
2021-05-18 21:50:29 GMT 41.157532 -77.682373 33,000 99 447 0
2021-05-18 21:50:26 GMT 41.158630 -77.691101 33,000 99 447 -64
2021-05-18 21:50:23 GMT 41.159454 -77.697571 33,000 99 447 -64
2021-05-18 21:50:20 GMT 41.162003 -77.717659 33,000 99 448 0
2021-05-18 21:50:16 GMT 41.162003 -77.717659 33,000 99 447 -64
2021-05-18 21:50:09 GMT 41.164097 -77.734138 33,000 99 448 0
2021-05-18 21:50:05 GMT 41.165447 -77.745003 33,000 99 447 64
2021-05-18 21:50:00 GMT 41.167740 -77.762939 33,000 99 448 64
2021-05-18 21:49:56 GMT 41.169029 -77.773216 33,000 99 448 64
2021-05-18 21:49:51 GMT 41.170258 -77.782776 33,000 99 448 0
2021-05-18 21:49:48 GMT 41.171265 -77.790878 33,000 99 448 0
2021-05-18 21:49:43 GMT 41.173370 -77.807678 33,000 99 448 0
2021-05-18 21:49:38 GMT 41.174835 -77.819458 33,000 99 448 0
2021-05-18 21:49:35 GMT 41.176151 -77.829895 33,000 99 448 0
2021-05-18 21:49:28 GMT 41.178200 -77.846184 33,000 99 447 0
2021-05-18 21:49:22 GMT 41.181931 -77.875977 33,000 99 447 0
2021-05-18 21:49:17 GMT 41.181931 -77.875977 33,000 99 447 64
2021-05-18 21:49:13 GMT 41.183788 -77.890572 33,000 99 447 64
2021-05-18 21:49:08 GMT 41.185371 -77.903549 33,000 99 447 0
2021-05-18 21:49:04 GMT 41.186485 -77.912231 33,000 99 447 0
2021-05-18 21:49:01 GMT 41.188293 -77.926819 33,000 99 447 0
2021-05-18 21:48:55 GMT 41.189346 -77.935242 33,000 99 447 0
2021-05-18 21:48:52 GMT 41.190632 -77.945686 33,000 99 446 0
2021-05-18 21:48:45 GMT 41.192909 -77.963982 33,000 99 445 0
2021-05-18 21:48:41 GMT 41.194061 -77.973511 33,000 99 445 0
2021-05-18 21:48:37 GMT 41.195751 -77.987015 33,000 99 445 0
2021-05-18 21:48:31 GMT 41.197540 -78.001587 33,000 99 445 0
2021-05-18 21:48:26 GMT 41.198959 -78.013428 33,000 99 445 0
2021-05-18 21:48:21 GMT 41.200733 -78.027840 33,000 99 445 -64
2021-05-18 21:48:18 GMT 41.201618 -78.035263 33,000 99 445 -64
2021-05-18 21:48:15 GMT 41.202454 -78.042130 33,000 99 444 -64
2021-05-18 21:48:12 GMT 41.203899 -78.053993 33,000 99 445 0
2021-05-18 21:48:09 GMT 41.206459 -78.074402 33,000 96 441 0
2021-05-18 21:48:04 GMT 41.206459 -78.074402 33,000 99 445 64
2021-05-18 21:48:01 GMT 41.207436 -78.081955 33,000 99 444 0
2021-05-18 21:47:58 GMT 41.208389 -78.089783 33,000 99 444 0
2021-05-18 21:47:55 GMT 41.209343 -78.098061 33,000 98 444 0
2021-05-18 21:47:51 GMT 41.211685 -78.119019 33,000 98 443 0
2021-05-18 21:47:48 GMT 41.211685 -78.119019 33,000 97 443 0
2021-05-18 21:47:44 GMT 41.212418 -78.125900 33,000 97 443 0
2021-05-18 21:47:41 GMT 41.213745 -78.138733 33,000 97 442 0
2021-05-18 21:47:38 GMT 41.214092 -78.142509 33,000 97 442 0
2021-05-18 21:47:35 GMT 41.215256 -78.154846 33,000 96 442 0
2021-05-18 21:47:30 GMT 41.216187 -78.164978 33,000 96 441 0
2021-05-18 21:47:27 GMT 41.216980 -78.174713 33,000 95 441 0
2021-05-18 21:47:22 GMT 41.218143 -78.189697 33,000 94 439 -64
2021-05-18 21:47:19 GMT 41.218513 -78.195000 33,000 94 439 -64
2021-05-18 21:47:16 GMT 41.219585 -78.211105 33,000 94 439 0
2021-05-18 21:47:13 GMT 41.219585 -78.211105 33,000 94 439 -64
2021-05-18 21:47:10 GMT 41.219913 -78.216728 33,000 94 439 64
2021-05-18 21:47:07 GMT 41.220562 -78.226402 33,000 94 438 64
2021-05-18 21:47:03 GMT 41.221401 -78.239388 33,000 94 438 64
2021-05-18 21:46:58 GMT 41.222195 -78.251305 33,000 94 438 -64
2021-05-18 21:46:54 GMT 41.222763 -78.260498 33,000 94 438 -64
2021-05-18 21:46:51 GMT 41.223541 -78.272278 33,000 94 437 0
2021-05-18 21:46:47 GMT 41.224091 -78.280640 33,000 94 437 0
2021-05-18 21:46:43 GMT 41.224777 -78.291565 33,000 94 437 64
2021-05-18 21:46:39 GMT 41.225731 -78.306175 33,000 94 437 -128
2021-05-18 21:46:37 GMT 41.225731 -78.306175 33,000 94 437 -128
2021-05-18 21:46:33 GMT 41.226475 -78.317978 33,000 94 436 64
2021-05-18 21:46:30 GMT 41.227020 -78.326111 33,000 94 436 64
2021-05-18 21:46:27 GMT 41.227478 -78.333618 33,000 94 436 64
2021-05-18 21:46:24 GMT 41.228302 -78.346497 33,000 94 436 64
2021-05-18 21:46:21 GMT 41.228477 -78.349190 33,000 94 436 0
2021-05-18 21:46:17 GMT 41.229267 -78.361984 33,000 94 437 0
2021-05-18 21:46:12 GMT 41.230225 -78.376404 33,000 94 437 0
2021-05-18 21:46:08 GMT 41.230728 -78.384766 33,000 94 437 64
2021-05-18 21:46:05 GMT 41.231232 -78.392456 33,000 94 437 0
2021-05-18 21:46:01 GMT 41.231876 -78.402557 33,000 94 438 -64
2021-05-18 21:45:56 GMT 41.232788 -78.417175 33,000 94 438 -64
2021-05-18 21:45:50 GMT 41.233658 -78.431030 33,000 94 438 0
2021-05-18 21:45:46 GMT 41.234573 -78.445251 33,000 94 438 64
2021-05-18 21:45:39 GMT 41.235809 -78.464783 33,000 94 439 -64
2021-05-18 21:45:35 GMT 41.236298 -78.472595 33,000 94 439 -64
2021-05-18 21:45:32 GMT 41.236717 -78.479340 33,000 94 439 -64
2021-05-18 21:45:28 GMT 41.237595 -78.493652 33,000 94 438 0
2021-05-18 21:45:25 GMT 41.238098 -78.501465 33,000 94 438 64
2021-05-18 21:45:18 GMT 41.239277 -78.520470 33,000 94 438 64
2021-05-18 21:45:15 GMT 41.239697 -78.526649 33,000 94 438 64
2021-05-18 21:45:12 GMT 41.240070 -78.533081 33,000 94 438 64
2021-05-18 21:45:08 GMT 41.240768 -78.544067 33,000 94 438 0
2021-05-18 21:45:05 GMT 41.241467 -78.555870 33,000 94 438 -64
2021-05-18 21:45:02 GMT 41.241714 -78.559509 33,000 94 438 -64
2021-05-18 21:44:59 GMT 41.242859 -78.577881 33,000 94 438 -64
2021-05-18 21:44:56 GMT 41.242859 -78.577881 33,000 94 438 -64
2021-05-18 21:44:53 GMT 41.243420 -78.586830 33,000 94 438 0
2021-05-18 21:44:49 GMT 41.244026 -78.596626 33,000 94 438 64
2021-05-18 21:44:45 GMT 41.244644 -78.606873 33,000 94 438 64
2021-05-18 21:44:41 GMT 41.245239 -78.616516 33,000 94 438 0
2021-05-18 21:44:37 GMT 41.245972 -78.628418 33,000 94 438 -64
2021-05-18 21:44:34 GMT 41.246521 -78.637207 33,000 94 438 0
2021-05-18 21:44:31 GMT 41.246933 -78.643677 33,000 94 438 0
2021-05-18 21:44:26 GMT 41.247849 -78.658630 33,000 94 438 -64
2021-05-18 21:44:23 GMT 41.248260 -78.665283 33,000 94 438 -64
2021-05-18 21:44:20 GMT 41.248867 -78.675468 33,000 94 438 -64
2021-05-18 21:44:16 GMT 41.249359 -78.683655 33,000 94 438 0
2021-05-18 21:44:13 GMT 41.249985 -78.693947 33,000 94 437 0
2021-05-18 21:44:10 GMT 41.250309 -78.699310 33,000 94 437 0
2021-05-18 21:44:06 GMT 41.251057 -78.711044 33,000 94 437 -64
2021-05-18 21:44:01 GMT 41.252060 -78.727722 33,000 94 437 64
2021-05-18 21:43:58 GMT 41.252312 -78.732399 33,000 94 437 64
2021-05-18 21:43:55 GMT 41.252731 -78.738953 33,000 94 437 64
2021-05-18 21:43:52 GMT 41.253288 -78.748436 33,000 94 438 -64
2021-05-18 21:43:49 GMT 41.253708 -78.754997 33,000 94 437 -64
2021-05-18 21:43:46 GMT 41.254452 -78.767853 33,000 94 437 0
2021-05-18 21:43:42 GMT 41.255013 -78.777214 33,000 94 437 64
2021-05-18 21:43:39 GMT 41.255569 -78.786140 33,000 94 437 0
2021-05-18 21:43:35 GMT 41.255997 -78.793091 33,000 94 437 0
2021-05-18 21:43:30 GMT 41.256966 -78.809677 33,000 94 437 -64
2021-05-18 21:43:24 GMT 41.257690 -78.821716 33,000 94 437 0
2021-05-18 21:43:21 GMT 41.258316 -78.832207 33,000 94 437 0
2021-05-18 21:43:18 GMT 41.258736 -78.838768 33,000 94 437 0
2021-05-18 21:43:14 GMT 41.259434 -78.850563 33,000 94 437 0
2021-05-18 21:43:11 GMT 41.259933 -78.858704 33,000 94 436 64
2021-05-18 21:43:08 GMT 41.260410 -78.866730 33,000 94 436 64
2021-05-18 21:43:05 GMT 41.261017 -78.877464 33,000 94 436 -64
2021-05-18 21:43:02 GMT 41.261307 -78.882019 33,000 94 436 -64
2021-05-18 21:42:59 GMT 41.261810 -78.890747 33,000 94 436 -64
2021-05-18 21:42:56 GMT 41.262405 -78.900208 33,000 94 436 -64
2021-05-18 21:42:53 GMT 41.262600 -78.904121 33,000 94 436 0
2021-05-18 21:42:50 GMT 41.263229 -78.914246 33,000 94 435 64
2021-05-18 21:42:47 GMT 41.263641 -78.921753 33,000 94 435 64
2021-05-18 21:42:44 GMT 41.264324 -78.932899 33,000 94 435 0
2021-05-18 21:42:40 GMT 41.264740 -78.940063 33,000 94 435 0
2021-05-18 21:42:37 GMT 41.265160 -78.947067 33,000 94 435 0
2021-05-18 21:42:34 GMT 41.265675 -78.956490 33,000 94 435 -64
2021-05-18 21:42:30 GMT 41.266464 -78.969414 33,000 94 435 -64
2021-05-18 21:42:27 GMT 41.266743 -78.974716 33,000 94 435 -64
2021-05-18 21:42:22 GMT 41.267487 -78.986877 33,000 94 435 0
2021-05-18 21:42:19 GMT 41.268467 -79.003494 33,000 94 435 64
2021-05-18 21:42:16 GMT 41.268467 -79.003494 33,000 94 435 64
2021-05-18 21:42:11 GMT 41.269444 -79.020538 33,000 94 436 0
2021-05-18 21:42:07 GMT 41.270050 -79.030823 33,000 94 437 -64
2021-05-18 21:42:03 GMT 41.270599 -79.040466 33,000 94 437 -64
2021-05-18 21:41:59 GMT 41.271118 -79.049316 33,000 94 438 0
2021-05-18 21:41:56 GMT 41.271561 -79.057556 33,000 94 438 64
2021-05-18 21:41:51 GMT 41.272247 -79.069397 33,000 94 438 64
2021-05-18 21:41:48 GMT 41.272842 -79.079407 33,000 94 438 0
2021-05-18 21:41:44 GMT 41.273346 -79.088623 33,000 94 438 0
2021-05-18 21:41:39 GMT 41.274193 -79.103058 33,000 94 438 -64
2021-05-18 21:41:36 GMT 41.274796 -79.113861 33,000 94 438 0
2021-05-18 21:41:30 GMT 41.275497 -79.126343 33,000 94 438 0
2021-05-18 21:41:27 GMT 41.276009 -79.134521 33,000 94 438 0
2021-05-18 21:41:23 GMT 41.276596 -79.144836 33,000 94 439 0
2021-05-18 21:41:20 GMT 41.277031 -79.152939 33,000 94 439 0
2021-05-18 21:41:17 GMT 41.277557 -79.162048 33,000 94 439 0
2021-05-18 21:41:14 GMT 41.278152 -79.172852 33,000 94 439 64
2021-05-18 21:41:11 GMT 41.278568 -79.179840 33,000 94 439 0
2021-05-18 21:41:05 GMT 41.279526 -79.196716 33,000 94 439 64
2021-05-18 21:41:02 GMT 41.279846 -79.202026 33,000 94 439 0
2021-05-18 21:40:59 GMT 41.280289 -79.210114 33,000 94 439 -64
2021-05-18 21:40:56 GMT 41.280762 -79.218140 33,000 94 439 -64
2021-05-18 21:40:53 GMT 41.281315 -79.228531 33,000 94 438 64
2021-05-18 21:40:50 GMT 41.281689 -79.235023 33,000 94 438 0
2021-05-18 21:40:47 GMT 41.282104 -79.242516 33,000 94 438 0
2021-05-18 21:40:44 GMT 41.282711 -79.253250 33,000 94 438 0
2021-05-18 21:40:40 GMT 41.283318 -79.264046 33,000 94 438 0
2021-05-18 21:40:36 GMT 41.283779 -79.272659 33,000 94 438 0
2021-05-18 21:40:32 GMT 41.284470 -79.285156 33,000 94 438 0
2021-05-18 21:40:29 GMT 41.284805 -79.291138 33,000 94 437 -64
2021-05-18 21:40:26 GMT 41.285248 -79.299011 33,000 94 437 -64
2021-05-18 21:40:23 GMT 41.285831 -79.309364 33,000 94 437 0
2021-05-18 21:40:20 GMT 41.286060 -79.313614 33,000 94 437 0
2021-05-18 21:40:16 GMT 41.286900 -79.328468 33,000 94 437 0
2021-05-18 21:40:11 GMT 41.287582 -79.340698 33,000 94 437 0
2021-05-18 21:40:08 GMT 41.287949 -79.347412 33,000 94 436 -64
2021-05-18 21:40:05 GMT 41.288361 -79.354919 33,000 94 436 -64
2021-05-18 21:40:01 GMT 41.288910 -79.365417 33,000 94 436 64
2021-05-18 21:39:58 GMT 41.289368 -79.373230 33,000 94 436 64
2021-05-18 21:39:53 GMT 41.290695 -79.397827 33,000 94 436 0
2021-05-18 21:39:50 GMT 41.290695 -79.397827 33,000 94 436 0
2021-05-18 21:39:47 GMT 41.290924 -79.402039 33,000 94 436 0
2021-05-18 21:39:42 GMT 41.291836 -79.418671 33,000 94 436 0
2021-05-18 21:39:38 GMT 41.292393 -79.428215 33,000 94 436 0
2021-05-18 21:39:34 GMT 41.292892 -79.437561 33,000 94 436 0
2021-05-18 21:39:31 GMT 41.293488 -79.448975 33,000 94 436 0
2021-05-18 21:39:27 GMT 41.293884 -79.455994 33,000 94 436 0
2021-05-18 21:39:23 GMT 41.294395 -79.465858 33,000 94 436 64
2021-05-18 21:39:20 GMT 41.294815 -79.473351 33,000 94 436 64
2021-05-18 21:39:17 GMT 41.295273 -79.481445 33,000 94 436 0
2021-05-18 21:39:14 GMT 41.295914 -79.493225 33,000 94 435 0
2021-05-18 21:39:11 GMT 41.296921 -79.512573 33,000 94 435 0
2021-05-18 21:39:06 GMT 41.296921 -79.512573 33,000 94 435 -64
2021-05-18 21:39:02 GMT 41.297421 -79.521667 33,000 94 435 0
2021-05-18 21:38:59 GMT 41.297836 -79.529602 33,000 94 435 64
2021-05-18 21:38:56 GMT 41.298351 -79.538643 33,000 94 435 -64
2021-05-18 21:38:53 GMT 41.298889 -79.548767 33,000 94 434 -64
2021-05-18 21:38:49 GMT 41.299393 -79.558350 33,000 94 434 64
2021-05-18 21:38:45 GMT 41.300400 -79.577454 33,000 94 434 0
2021-05-18 21:38:42 GMT 41.300400 -79.577454 33,000 94 434 -64
2021-05-18 21:38:39 GMT 41.300949 -79.588074 33,000 94 433 64
2021-05-18 21:38:36 GMT 41.301315 -79.594421 33,000 94 433 64
2021-05-18 21:38:32 GMT 41.301704 -79.602379 33,000 94 433 0
2021-05-18 21:38:28 GMT 41.302185 -79.611450 33,000 93 433 -64
2021-05-18 21:38:25 GMT 41.302776 -79.622604 33,000 93 433 64
2021-05-18 21:38:22 GMT 41.303288 -79.631966 33,000 93 433 0
2021-05-18 21:38:18 GMT 41.303604 -79.637939 33,000 93 433 -64
2021-05-18 21:38:14 GMT 41.304173 -79.648941 33,000 93 433 -64
2021-05-18 21:38:11 GMT 41.304703 -79.659180 33,000 93 433 0
2021-05-18 21:38:08 GMT 41.305618 -79.676025 33,000 93 433 0
2021-05-18 21:38:05 GMT 41.305618 -79.676025 33,000 93 433 64
2021-05-18 21:38:01 GMT 41.306221 -79.687454 33,000 93 433 -64
2021-05-18 21:37:58 GMT 41.306499 -79.692825 33,000 93 433 -64
2021-05-18 21:37:53 GMT 41.307198 -79.706749 33,000 93 432 0
2021-05-18 21:37:50 GMT 41.307541 -79.713684 33,000 93 432 -64
2021-05-18 21:37:47 GMT 41.308128 -79.724785 33,000 93 432 0
2021-05-18 21:37:43 GMT 41.308548 -79.732605 33,000 93 432 64
2021-05-18 21:37:40 GMT 41.309052 -79.742188 33,000 93 432 0
2021-05-18 21:37:37 GMT 41.309418 -79.749634 33,000 93 432 0
2021-05-18 21:37:33 GMT 41.310314 -79.767113 33,000 93 432 0
2021-05-18 21:37:30 GMT 41.310314 -79.767113 33,000 93 432 64
2021-05-18 21:37:27 GMT 41.310734 -79.775536 33,000 93 432 64
2021-05-18 21:37:20 GMT 41.311798 -79.796021 33,000 93 431 0
2021-05-18 21:37:16 GMT 41.312119 -79.802307 33,000 93 431 64
2021-05-18 21:37:13 GMT 41.312737 -79.814552 33,000 93 431 0
2021-05-18 21:37:07 GMT 41.313576 -79.830345 33,000 93 431 64
2021-05-18 21:37:04 GMT 41.313766 -79.834290 33,000 93 431 0
2021-05-18 21:37:01 GMT 41.314316 -79.844849 33,000 93 431 -64
2021-05-18 21:36:58 GMT 41.314693 -79.852814 33,000 93 432 64
2021-05-18 21:36:55 GMT 41.315250 -79.863304 33,000 93 432 -64
2021-05-18 21:36:52 GMT 41.315483 -79.868484 33,000 93 432 -64
2021-05-18 21:36:49 GMT 41.315964 -79.877747 33,000 93 433 0
2021-05-18 21:36:46 GMT 41.316929 -79.896133 33,000 93 434 64
2021-05-18 21:36:42 GMT 41.317337 -79.904480 33,000 93 434 -128
2021-05-18 21:36:38 GMT 41.317337 -79.904480 33,000 93 436 64
2021-05-18 21:36:34 GMT 41.317764 -79.913490 33,000 93 436 0
2021-05-18 21:36:31 GMT 41.318417 -79.926414 33,000 93 436 -64
2021-05-18 21:36:27 GMT 41.318790 -79.934090 33,000 93 436 -64
2021-05-18 21:36:24 GMT 41.319206 -79.942451 33,000 93 437 -64
2021-05-18 21:36:21 GMT 41.319626 -79.950745 33,000 93 437 64
2021-05-18 21:36:18 GMT 41.320175 -79.961426 33,000 93 438 64
2021-05-18 21:36:15 GMT 41.320557 -79.969421 33,000 93 438 64
2021-05-18 21:36:10 GMT 41.321022 -79.979034 33,000 93 438 -64
2021-05-18 21:36:07 GMT 41.321487 -79.987839 33,000 93 438 0
2021-05-18 21:36:00 GMT 41.322418 -80.006531 33,000 93 439 64
2021-05-18 21:35:57 GMT 41.322933 -80.016983 33,000 93 439 -64
2021-05-18 21:35:51 GMT 41.323837 -80.035828 33,000 93 439 64
2021-05-18 21:35:47 GMT 41.324234 -80.043892 33,000 93 439 128
2021-05-18 21:35:44 GMT 41.324661 -80.052063 33,000 93 439 0
2021-05-18 21:35:40 GMT 41.325119 -80.061768 33,000 93 440 -128
2021-05-18 21:35:35 GMT 41.325714 -80.073792 33,000 93 440 0
2021-05-18 21:35:32 GMT 41.326035 -80.080322 33,000 93 442 -64
2021-05-18 21:35:29 GMT 41.326981 -80.100441 33,000 93 440 0
2021-05-18 21:35:26 GMT 41.326981 -80.100441 33,000 93 440 0
2021-05-18 21:35:22 GMT 41.327400 -80.109062 33,000 93 440 0
2021-05-18 21:35:16 GMT 41.328323 -80.127808 33,000 93 441 0
2021-05-18 21:35:13 GMT 41.328690 -80.135620 33,000 93 441 64
2021-05-18 21:35:07 GMT 41.329727 -80.156563 33,000 93 443 64
2021-05-18 21:35:04 GMT 41.329727 -80.156563 33,000 93 442 0
2021-05-18 21:35:01 GMT 41.330288 -80.168610 33,000 93 442 0
2021-05-18 21:34:58 GMT 41.330566 -80.174042 33,000 93 443 64
2021-05-18 21:34:55 GMT 41.331116 -80.185486 33,000 93 443 64
2021-05-18 21:34:51 GMT 41.331497 -80.193581 33,000 93 443 -64
2021-05-18 21:34:46 GMT 41.332260 -80.209473 33,000 93 443 -64
2021-05-18 21:34:43 GMT 41.332489 -80.214905 33,000 93 443 0
2021-05-18 21:34:39 GMT 41.333126 -80.228226 33,000 93 443 64
2021-05-18 21:34:36 GMT 41.333405 -80.233780 33,000 93 443 64
2021-05-18 21:34:33 GMT 41.333817 -80.242981 33,000 93 443 64
2021-05-18 21:34:30 GMT 41.334057 -80.248138 33,000 93 444 -64
2021-05-18 21:34:27 GMT 41.334522 -80.258125 33,000 93 444 64
2021-05-18 21:34:24 GMT 41.335052 -80.268555 33,000 93 444 64
2021-05-18 21:34:21 GMT 41.335419 -80.277100 33,000 93 444 -64
2021-05-18 21:34:16 GMT 41.336105 -80.290894 33,000 93 445 0
2021-05-18 21:34:13 GMT 41.336712 -80.304001 33,000 93 445 0
2021-05-18 21:34:10 GMT 41.336712 -80.304001 33,000 93 445 -64
2021-05-18 21:34:07 GMT 41.337223 -80.314926 33,000 93 445 -64
2021-05-18 21:34:04 GMT 41.337456 -80.320358 33,000 93 445 0
2021-05-18 21:34:00 GMT 41.338017 -80.332153 33,000 93 445 0
2021-05-18 21:33:57 GMT 41.338577 -80.343872 33,000 93 445 -64
2021-05-18 21:33:53 GMT 41.338993 -80.353195 33,000 93 445 0
2021-05-18 21:33:50 GMT 41.339413 -80.361931 33,000 93 445 64
2021-05-18 21:33:46 GMT 41.339828 -80.371544 33,000 93 445 64
2021-05-18 21:33:42 GMT 41.340668 -80.389023 33,000 93 444 64
2021-05-18 21:33:39 GMT 41.340668 -80.389023 33,000 93 445 -64
2021-05-18 21:33:36 GMT 41.341095 -80.398376 33,000 93 444 -64
2021-05-18 21:33:32 GMT 41.341507 -80.407814 33,000 93 444 -64
2021-05-18 21:33:29 GMT 41.341965 -80.418152 33,000 93 444 64
2021-05-18 21:33:25 GMT 41.342438 -80.428352 33,000 93 444 64
2021-05-18 21:33:22 GMT 41.342903 -80.438400 33,000 93 445 0
2021-05-18 21:33:18 GMT 41.343227 -80.446075 33,000 93 445 0
2021-05-18 21:33:15 GMT 41.343704 -80.456177 33,000 93 445 -64
2021-05-18 21:33:11 GMT 41.344112 -80.465492 33,000 93 445 64
2021-05-18 21:33:07 GMT 41.344624 -80.476601 33,000 93 445 64
2021-05-18 21:33:04 GMT 41.344997 -80.484276 33,000 93 445 64
2021-05-18 21:33:00 GMT 41.345417 -80.494080 33,000 93 445 -64
2021-05-18 21:32:57 GMT 41.345928 -80.505066 33,000 93 445 -64
2021-05-18 21:32:53 GMT 41.346451 -80.516235 33,000 93 445 0
2021-05-18 21:32:50 GMT 41.346680 -80.521973 33,000 93 445 0
2021-05-18 21:32:47 GMT 41.347092 -80.531281 33,000 93 445 0
2021-05-18 21:32:44 GMT 41.347607 -80.542023 33,000 93 446 0
2021-05-18 21:32:40 GMT 41.348007 -80.551575 33,000 93 446 64
2021-05-18 21:32:37 GMT 41.348419 -80.560242 33,000 93 446 64
2021-05-18 21:32:33 GMT 41.348862 -80.569923 33,000 93 447 -64
2021-05-18 21:32:30 GMT 41.349281 -80.579788 33,000 93 447 0
2021-05-18 21:32:27 GMT 41.349651 -80.588463 33,000 93 447 64
2021-05-18 21:32:21 GMT 41.350399 -80.605064 33,000 93 447 -64
2021-05-18 21:32:18 GMT 41.350571 -80.608948 33,000 93 447 -64
2021-05-18 21:32:15 GMT 41.351002 -80.618301 33,000 93 447 0
2021-05-18 21:32:12 GMT 41.351467 -80.629288 33,000 93 447 64
2021-05-18 21:32:09 GMT 41.351807 -80.637512 33,000 93 446 64
2021-05-18 21:32:06 GMT 41.352219 -80.646301 33,000 93 446 64
2021-05-18 21:32:03 GMT 41.352585 -80.655029 33,000 93 446 0
2021-05-18 21:32:00 GMT 41.352913 -80.662186 33,000 93 446 64
2021-05-18 21:31:57 GMT 41.353100 -80.666550 33,000 93 446 0
2021-05-18 21:31:54 GMT 41.353455 -80.674500 33,000 93 446 64
2021-05-18 21:31:51 GMT 41.353981 -80.687218 33,000 93 446 -128
2021-05-18 21:31:48 GMT 41.354324 -80.694214 33,000 93 446 -128
2021-05-18 21:31:42 GMT 41.355007 -80.710373 33,000 93 446 -64
2021-05-18 21:31:37 GMT 41.355606 -80.724060 33,000 93 446 64
2021-05-18 21:31:34 GMT 41.355938 -80.731163 33,000 93 445 64
2021-05-18 21:31:30 GMT 41.356430 -80.742493 33,000 93 445 64
2021-05-18 21:31:27 GMT 41.356750 -80.750183 33,000 93 445 64
2021-05-18 21:31:24 GMT 41.357101 -80.758316 33,000 93 445 64
2021-05-18 21:31:20 GMT 41.357658 -80.771797 33,000 93 445 -64
2021-05-18 21:31:16 GMT 41.358124 -80.782104 33,000 93 445 -64
2021-05-18 21:31:13 GMT 41.358353 -80.787781 33,000 93 444 -64
2021-05-18 21:31:10 GMT 41.358776 -80.798203 33,000 93 444 64
2021-05-18 21:31:06 GMT 41.359177 -80.807495 33,000 93 444 64
2021-05-18 21:31:03 GMT 41.359497 -80.815125 33,000 93 444 -64
2021-05-18 21:30:59 GMT 41.360081 -80.828598 33,000 93 443 -64
2021-05-18 21:30:56 GMT 41.360313 -80.834282 33,000 93 443 -64
2021-05-18 21:30:53 GMT 41.360641 -80.842468 33,000 93 443 0
2021-05-18 21:30:48 GMT 41.361191 -80.855347 33,000 93 442 64
2021-05-18 21:30:45 GMT 41.361557 -80.864319 33,000 93 442 64
2021-05-18 21:30:42 GMT 41.361832 -80.870972 33,000 93 442 64
2021-05-18 21:30:38 GMT 41.362335 -80.883118 33,000 93 443 0
2021-05-18 21:30:35 GMT 41.362686 -80.891273 33,000 93 443 0
2021-05-18 21:30:32 GMT 41.363106 -80.901138 33,000 93 443 -128
2021-05-18 21:30:26 GMT 41.364082 -80.925041 33,000 93 443 0
2021-05-18 21:30:23 GMT 41.364082 -80.925041 33,000 93 443 0
2021-05-18 21:30:19 GMT 41.364552 -80.937027 33,000 93 443 64
2021-05-18 21:30:15 GMT 41.365013 -80.947952 33,000 93 444 64
2021-05-18 21:30:10 GMT 41.365482 -80.958817 33,000 93 444 0
2021-05-18 21:30:07 GMT 41.365852 -80.968613 33,000 93 444 0
2021-05-18 21:30:04 GMT 41.366180 -80.975418 33,000 93 444 64
2021-05-18 21:30:01 GMT 41.366501 -80.983459 33,000 93 444 0
2021-05-18 21:29:58 GMT 41.367188 -81.000916 33,000 93 444 -64
2021-05-18 21:29:55 GMT 41.367188 -81.000916 33,000 93 444 -64
2021-05-18 21:29:51 GMT 41.367668 -81.012497 33,000 93 445 0
2021-05-18 21:29:48 GMT 41.368011 -81.020813 33,000 93 445 64
2021-05-18 21:29:44 GMT 41.368469 -81.031738 33,000 93 445 0
2021-05-18 21:29:40 GMT 41.368790 -81.040405 33,000 93 446 -64
2021-05-18 21:29:37 GMT 41.369205 -81.049828 33,000 93 446 0
2021-05-18 21:29:33 GMT 41.369625 -81.060623 33,000 93 446 0
2021-05-18 21:29:30 GMT 41.370026 -81.070068 33,000 93 447 -64
2021-05-18 21:29:24 GMT 41.370647 -81.086029 33,000 93 448 64
2021-05-18 21:29:20 GMT 41.371078 -81.097473 33,000 93 449 -64
2021-05-18 21:29:16 GMT 41.371536 -81.108643 33,000 93 449 0
2021-05-18 21:29:13 GMT 41.371902 -81.118347 33,000 93 449 -64
2021-05-18 21:29:08 GMT 41.372406 -81.130737 33,000 92 449 -64
2021-05-18 21:29:05 GMT 41.372650 -81.136597 33,000 93 449 0
2021-05-18 21:29:02 GMT 41.373020 -81.146767 33,000 92 449 0
2021-05-18 21:28:59 GMT 41.373413 -81.155945 33,000 92 449 0
2021-05-18 21:28:54 GMT 41.373955 -81.169991 33,000 93 449 64
2021-05-18 21:28:51 GMT 41.374233 -81.176605 33,000 93 449 64
2021-05-18 21:28:48 GMT 41.374878 -81.193909 33,000 93 449 0
2021-05-18 21:28:45 GMT 41.374878 -81.193909 33,000 92 449 -64
2021-05-18 21:28:41 GMT 41.375301 -81.204323 33,000 92 449 -64
2021-05-18 21:28:38 GMT 41.375538 -81.211128 33,000 92 449 0
2021-05-18 21:28:35 GMT 41.375954 -81.220863 33,000 92 449 0
2021-05-18 21:28:32 GMT 41.376373 -81.231911 33,000 92 450 0
2021-05-18 21:28:28 GMT 41.376701 -81.240898 33,000 92 450 -64
2021-05-18 21:28:25 GMT 41.377121 -81.251465 33,000 92 450 -64
2021-05-18 21:28:20 GMT 41.377625 -81.264771 33,000 92 450 64
2021-05-18 21:28:17 GMT 41.377956 -81.272926 33,000 92 451 0
2021-05-18 21:28:12 GMT 41.378403 -81.285645 33,000 92 451 -64
2021-05-18 21:28:09 GMT 41.378769 -81.294678 33,000 92 451 -64
2021-05-18 21:28:06 GMT 41.378983 -81.300766 33,000 92 451 0
2021-05-18 21:28:01 GMT 41.379456 -81.313477 33,000 92 451 64
2021-05-18 21:27:57 GMT 41.379864 -81.323982 33,000 92 452 -64
2021-05-18 21:27:53 GMT 41.380283 -81.335098 33,000 92 452 -64
2021-05-18 21:27:50 GMT 41.380795 -81.348457 33,000 92 452 -64
2021-05-18 21:27:47 GMT 41.380981 -81.352882 33,000 92 452 0
2021-05-18 21:27:43 GMT 41.381561 -81.367859 33,000 92 452 64
2021-05-18 21:27:39 GMT 41.381866 -81.376297 33,000 92 452 64
2021-05-18 21:27:36 GMT 41.382145 -81.384033 33,000 92 452 64
2021-05-18 21:27:33 GMT 41.382523 -81.394592 33,000 92 452 0
2021-05-18 21:27:30 GMT 41.382751 -81.400208 33,000 92 451 -64
2021-05-18 21:27:27 GMT 41.383076 -81.409500 33,000 92 451 0
2021-05-18 21:27:20 GMT 41.384193 -81.439903 33,000 92 451 0
2021-05-18 21:27:16 GMT 41.384193 -81.439903 33,000 92 451 0
2021-05-18 21:27:12 GMT 41.384674 -81.452393 33,000 92 451 -64
2021-05-18 21:27:09 GMT 41.384987 -81.461128 33,000 92 451 64
2021-05-18 21:27:05 GMT 41.385910 -81.486389 33,000 92 453 -64
2021-05-18 21:27:00 GMT 41.385910 -81.486389 33,000 92 453 -64
2021-05-18 21:26:56 GMT 41.386276 -81.497498 33,000 92 457 64
2021-05-18 21:26:53 GMT 41.386505 -81.502991 33,000 92 454 64
2021-05-18 21:26:50 GMT 41.386757 -81.510315 33,000 92 455 128
2021-05-18 21:26:47 GMT 41.387035 -81.518173 33,000 92 455 128
2021-05-18 21:26:43 GMT 41.387512 -81.530975 33,000 92 456 0
2021-05-18 21:26:39 GMT 41.387871 -81.541611 33,000 92 456 0
2021-05-18 21:26:36 GMT 41.388107 -81.548950 33,000 92 457 0
2021-05-18 21:26:33 GMT 41.388474 -81.559006 33,000 92 458 0
2021-05-18 21:26:30 GMT 41.388756 -81.567352 33,000 92 459 -128
2021-05-18 21:26:27 GMT 41.389160 -81.578171 33,000 92 460 -64
2021-05-18 21:26:24 GMT 41.388100 -81.581779 32,900 93 480 448
2021-05-18 21:26:23 GMT 41.388390 -81.587662 32,900 93 480 800
2021-05-18 21:26:21 GMT 41.388531 -81.590607 32,900 93 480 800
2021-05-18 21:26:20 GMT 41.388680 -81.593552 32,900 93 480 800
2021-05-18 21:26:19 GMT 41.388962 -81.599426 32,900 93 480 800
2021-05-18 21:26:17 GMT 41.389111 -81.602371 32,900 93 480 800
2021-05-18 21:26:16 GMT 41.389252 -81.605309 32,900 93 480 800
2021-05-18 21:26:15 GMT 41.389530 -81.611198 32,900 93 480 800
2021-05-18 21:26:13 GMT 41.389679 -81.614143 32,900 93 480 800
2021-05-18 21:26:12 GMT 41.389820 -81.617081 32,900 93 480 800
2021-05-18 21:26:11 GMT 41.389961 -81.620018 32,900 93 480 800
2021-05-18 21:26:09 GMT 41.390251 -81.625900 32,900 93 480 800
2021-05-18 21:26:08 GMT 41.390388 -81.628853 32,900 93 480 800
2021-05-18 21:26:07 GMT 41.390530 -81.631790 32,900 93 480 800
2021-05-18 21:26:05 GMT 41.390820 -81.637672 32,900 93 480 800
2021-05-18 21:26:04 GMT 41.390961 -81.640610 32,900 93 480 800
2021-05-18 21:26:03 GMT 41.391102 -81.643547 32,900 93 480 800
2021-05-18 21:26:01 GMT 41.391392 -81.649437 32,900 93 480 800
2021-05-18 21:25:59 GMT 41.391670 -81.655319 32,900 93 480 800
2021-05-18 21:25:57 GMT 41.391949 -81.661201 32,900 93 480 800
2021-05-18 21:25:56 GMT 41.392090 -81.664146 32,900 93 480 800
2021-05-18 21:25:55 GMT 41.392239 -81.667091 32,900 93 480 800
2021-05-18 21:25:54 GMT 41.392761 -81.672638 32,800 92 486 800
2021-05-18 21:25:52 GMT 41.393002 -81.678596 32,800 92 486 800
2021-05-18 21:25:50 GMT 41.393108 -81.681580 32,800 92 486 800
2021-05-18 21:25:49 GMT 41.393871 -81.684853 32,800 90 486 800
2021-05-18 21:25:47 GMT 41.393940 -81.690819 32,800 90 486 800
2021-05-18 21:25:46 GMT 41.393978 -81.693802 32,800 90 486 800
2021-05-18 21:25:45 GMT 41.394020 -81.696793 32,800 90 486 800
2021-05-18 21:25:44 GMT 41.394379 -81.703690 32,550 89 483 800
2021-05-18 21:25:42 GMT 41.394371 -81.706657 32,550 89 483 800
2021-05-18 21:25:41 GMT 41.394360 -81.709633 32,550 89 483 800
2021-05-18 21:25:40 GMT 41.394989 -81.714104 32,550 87 465 800
2021-05-18 21:25:39 GMT 41.394852 -81.719818 32,550 87 465 800
2021-05-18 21:25:37 GMT 41.394779 -81.722672 32,550 87 465 800
2021-05-18 21:25:36 GMT 41.394711 -81.725533 32,550 87 465 800
2021-05-18 21:25:34 GMT 41.394581 -81.731293 32,550 88 464 800
2021-05-18 21:25:33 GMT 41.394440 -81.734039 32,550 88 467 800
2021-05-18 21:25:32 GMT 41.394508 -81.739960 32,500 87 462 800
2021-05-18 21:25:30 GMT 41.394260 -81.742371 32,500 87 472 800
2021-05-18 21:25:29 GMT 41.394428 -81.745567 32,475 86 464 800
2021-05-18 21:25:27 GMT 41.393909 -81.751282 32,425 88 465 800
2021-05-18 21:25:26 GMT 41.393978 -81.754150 32,425 87 464 800
2021-05-18 21:25:25 GMT 41.393478 -81.759262 32,275 87 486 800
2021-05-18 21:25:23 GMT 41.394810 -81.763359 32,275 80 480 800
2021-05-18 21:25:20 GMT 41.392761 -81.772202 32,275 85 468 1408
2021-05-18 21:25:17 GMT 41.392342 -81.778839 32,225 84 468 1344
2021-05-18 21:25:13 GMT 41.391598 -81.788231 32,150 83 467 1280
2021-05-18 21:25:09 GMT 41.390015 -81.804138 32,025 80 466 1344
2021-05-18 21:25:04 GMT 41.388474 -81.817055 31,925 79 466 1216
2021-05-18 21:25:01 GMT 41.387329 -81.825050 31,875 78 465 1088
2021-05-18 21:24:57 GMT 41.383575 -81.847046 31,800 76 463 896
2021-05-18 21:24:53 GMT 41.383575 -81.847046 31,750 75 463 896
2021-05-18 21:24:50 GMT 41.382065 -81.854858 31,725 75 462 832
2021-05-18 21:24:46 GMT 41.379822 -81.866089 31,675 75 462 768
2021-05-18 21:24:43 GMT 41.378265 -81.873840 31,625 75 461 768
2021-05-18 21:24:40 GMT 41.376419 -81.883163 31,600 75 461 704
2021-05-18 21:24:37 GMT 41.373413 -81.898071 31,475 75 460 704
2021-05-18 21:24:34 GMT 41.373413 -81.898071 31,525 75 459 704
2021-05-18 21:24:31 GMT 41.371857 -81.905823 31,500 75 459 704
2021-05-18 21:24:26 GMT 41.369522 -81.917725 31,450 75 459 768
2021-05-18 21:24:22 GMT 41.367142 -81.929688 31,375 75 457 768
2021-05-18 21:24:19 GMT 41.365063 -81.940033 31,350 74 457 704
2021-05-18 21:24:16 GMT 41.363945 -81.945396 31,250 72 454 768
2021-05-18 21:24:13 GMT 41.361420 -81.956970 31,275 72 453 704
2021-05-18 21:24:10 GMT 41.360458 -81.960999 31,250 72 453 704
2021-05-18 21:24:06 GMT 41.357391 -81.972595 31,125 67 449 768
2021-05-18 21:24:01 GMT 41.352493 -81.987793 31,125 64 446 704
2021-05-18 21:23:56 GMT 41.348209 -81.999016 31,075 61 443 768
2021-05-18 21:23:51 GMT 41.344254 -82.008118 30,975 57 439 1024
2021-05-18 21:23:48 GMT 41.339226 -82.018555 30,950 55 437 1088
2021-05-18 21:23:43 GMT 41.333965 -82.028107 30,850 52 435 1024
2021-05-18 21:23:39 GMT 41.329697 -82.035217 30,800 50 434 1024
2021-05-18 21:23:34 GMT 41.321686 -82.047058 30,700 45 429 896
2021-05-18 21:23:30 GMT 41.317245 -82.053040 30,650 42 427 960
2021-05-18 21:23:27 GMT 41.311432 -82.060120 30,600 41 426 1024
2021-05-18 21:23:23 GMT 41.306965 -82.065247 30,525 38 423 1024
2021-05-18 21:23:20 GMT 41.302635 -82.069809 30,500 36 421 1024
2021-05-18 21:23:17 GMT 41.297001 -82.075302 30,450 33 419 896
2021-05-18 21:23:13 GMT 41.290833 -82.080627 30,400 30 416 896
2021-05-18 21:23:09 GMT 41.278149 -82.089653 30,325 27 414 896
2021-05-18 21:23:06 GMT 41.278149 -82.089653 30,150 24 411 896
2021-05-18 21:23:02 GMT 41.273666 -82.092468 30,250 24 411 896
2021-05-18 21:22:59 GMT 41.267071 -82.096336 30,150 23 409 1216
2021-05-18 21:22:55 GMT 41.260040 -82.100517 30,075 23 409 1216
2021-05-18 21:22:52 GMT 41.255199 -82.103386 30,075 23 409 1216
2021-05-18 21:22:48 GMT 41.247562 -82.107819 29,975 23 409 1344
2021-05-18 21:22:45 GMT 41.242401 -82.110901 29,875 24 409 1600
2021-05-18 21:22:42 GMT 41.238922 -82.112976 29,825 24 409 1600
2021-05-18 21:22:39 GMT 41.232834 -82.116577 29,750 23 409 1280
2021-05-18 21:22:36 GMT 41.228336 -82.119179 29,750 23 409 1280
2021-05-18 21:22:32 GMT 41.220562 -82.123802 29,625 24 409 1344
2021-05-18 21:22:28 GMT 41.212051 -82.128784 29,500 23 408 1216
2021-05-18 21:22:23 GMT 41.204315 -82.133362 29,400 23 408 1152
2021-05-18 21:22:20 GMT 41.199848 -82.136040 29,325 23 408 1152
2021-05-18 21:22:17 GMT 41.195007 -82.138847 29,300 23 408 1152
2021-05-18 21:22:14 GMT 41.188862 -82.142464 29,250 24 407 1280
2021-05-18 21:22:10 GMT 41.181427 -82.146851 29,125 24 407 1408
2021-05-18 21:22:07 GMT 41.176895 -82.149582 29,100 24 407 1344
2021-05-18 21:22:01 GMT 41.167400 -82.155136 28,975 23 406 1280
2021-05-18 21:21:57 GMT 41.159363 -82.159851 28,875 23 406 1216
2021-05-18 21:21:52 GMT 41.150829 -82.164871 28,775 23 406 1152
2021-05-18 21:21:49 GMT 41.146362 -82.167480 28,700 23 405 1088
2021-05-18 21:21:46 GMT 41.141144 -82.170555 28,675 23 404 1152
2021-05-18 21:21:43 GMT 41.135422 -82.173889 28,575 23 404 1216
2021-05-18 21:21:39 GMT 41.127823 -82.178406 28,525 23 403 1280
2021-05-18 21:21:36 GMT 41.124435 -82.180359 28,475 23 403 1344
2021-05-18 21:21:33 GMT 41.118851 -82.183655 28,400 23 403 1344
2021-05-18 21:21:30 GMT 41.112671 -82.187317 28,325 23 403 1344
2021-05-18 21:21:26 GMT 41.106491 -82.190918 28,225 23 403 1408
2021-05-18 21:21:20 GMT 41.096970 -82.196472 28,100 23 402 1344
2021-05-18 21:21:15 GMT 41.088776 -82.201294 28,000 23 402 1344
2021-05-18 21:21:09 GMT 41.078903 -82.207069 27,700 24 400 1280
2021-05-18 21:21:06 GMT 41.073273 -82.210381 27,800 23 401 1280
2021-05-18 21:21:00 GMT 41.061401 -82.217346 27,200 23 399 1408
2021-05-18 21:20:56 GMT 41.055405 -82.220825 27,525 23 400 1344
2021-05-18 21:20:53 GMT 41.050552 -82.223694 27,525 23 400 1344
2021-05-18 21:20:50 GMT 41.044876 -82.227051 27,425 23 399 1344
2021-05-18 21:20:46 GMT 41.038635 -82.230667 27,375 23 399 1344
2021-05-18 21:20:43 GMT 41.034256 -82.233215 27,325 23 399 1280
2021-05-18 21:20:38 GMT 41.025139 -82.238594 27,200 23 399 1408
2021-05-18 21:20:33 GMT 41.018387 -82.242531 27,100 23 398 1408
2021-05-18 21:20:29 GMT 41.008759 -82.248169 26,975 23 398 1408
2021-05-18 21:20:24 GMT 41.000473 -82.252991 26,850 23 398 1408
2021-05-18 21:20:17 GMT 40.989807 -82.259216 26,700 23 397 1344
2021-05-18 21:20:13 GMT 40.983490 -82.262939 26,625 23 397 1344
2021-05-18 21:20:07 GMT 40.973698 -82.268684 26,500 23 397 1344
2021-05-18 21:20:03 GMT 40.966293 -82.272987 26,400 23 395 1408
2021-05-18 21:19:58 GMT 40.956940 -82.278481 26,275 23 395 1408
2021-05-18 21:19:55 GMT 40.952042 -82.281311 26,175 23 395 1408
2021-05-18 21:19:52 GMT 40.948517 -82.283325 26,150 23 395 1408
2021-05-18 21:19:47 GMT 40.939957 -82.288330 25,950 23 394 1344
2021-05-18 21:19:43 GMT 40.932125 -82.292908 25,925 23 394 1408
2021-05-18 21:19:40 GMT 40.929424 -82.294464 25,925 23 394 1408
2021-05-18 21:19:36 GMT 40.921738 -82.298950 25,775 23 394 1280
2021-05-18 21:19:32 GMT 40.914062 -82.303452 25,675 23 393 1216
2021-05-18 21:19:27 GMT 40.905212 -82.308655 25,575 23 393 1216
2021-05-18 21:19:24 GMT 40.901047 -82.311035 25,525 23 392 1280
2021-05-18 21:19:21 GMT 40.896748 -82.313568 25,475 23 392 1344
2021-05-18 21:19:16 GMT 40.888275 -82.318481 25,350 23 392 1472
2021-05-18 21:19:13 GMT 40.883247 -82.321434 25,275 23 392 1472
2021-05-18 21:19:10 GMT 40.879242 -82.323738 25,225 23 392 1472
2021-05-18 21:19:05 GMT 40.869598 -82.329346 25,075 23 392 1536
2021-05-18 21:19:01 GMT 40.861973 -82.333794 24,950 23 392 1600
2021-05-18 21:18:57 GMT 40.857010 -82.336670 24,875 23 392 1600
2021-05-18 21:18:53 GMT 40.849045 -82.341309 24,750 23 392 1536
2021-05-18 21:18:50 GMT 40.844841 -82.343781 24,700 23 392 1472
2021-05-18 21:18:44 GMT 40.836693 -82.348518 24,575 23 391 1408
2021-05-18 21:18:40 GMT 40.829041 -82.352966 24,450 23 391 1280
2021-05-18 21:18:37 GMT 40.823090 -82.356445 24,400 23 390 1216
2021-05-18 21:18:33 GMT 40.816498 -82.360291 24,325 23 389 1344
2021-05-18 21:18:29 GMT 40.810856 -82.363564 24,275 23 389 1344
2021-05-18 21:18:26 GMT 40.805595 -82.366623 24,150 23 389 1472
2021-05-18 21:18:22 GMT 40.794067 -82.373352 23,925 23 389 1600
2021-05-18 21:18:15 GMT 40.788605 -82.376488 23,900 23 389 1664
2021-05-18 21:18:11 GMT 40.772636 -82.385788 23,700 23 389 1664
2021-05-18 21:18:07 GMT 40.772636 -82.385788 23,625 23 389 1600
2021-05-18 21:18:04 GMT 40.767700 -82.388672 23,550 23 389 1664
2021-05-18 21:18:01 GMT 40.763515 -82.391090 23,475 23 389 1664
2021-05-18 21:17:58 GMT 40.760468 -82.392883 23,450 23 389 1600
2021-05-18 21:17:55 GMT 40.755249 -82.395874 23,275 23 389 1408
2021-05-18 21:17:51 GMT 40.746895 -82.400703 23,225 23 388 1344
2021-05-18 21:17:48 GMT 40.743805 -82.402527 22,975 23 385 1408
2021-05-18 21:17:44 GMT 40.736328 -82.406883 23,100 23 386 1408
2021-05-18 21:17:39 GMT 40.726868 -82.412354 22,775 23 385 1472
2021-05-18 21:17:35 GMT 40.721848 -82.415253 22,875 23 385 1472
2021-05-18 21:17:28 GMT 40.710861 -82.421684 22,575 23 384 1472
2021-05-18 21:17:25 GMT 40.705215 -82.424927 22,650 23 384 1472
2021-05-18 21:17:22 GMT 40.700729 -82.427490 22,575 23 384 1472
2021-05-18 21:17:19 GMT 40.695873 -82.430298 22,425 23 383 1472
2021-05-18 21:17:16 GMT 40.690247 -82.433594 22,425 23 383 1472
2021-05-18 21:17:11 GMT 40.682838 -82.437851 22,175 23 381 1408
2021-05-18 21:17:08 GMT 40.678928 -82.440094 22,175 23 381 1408
2021-05-18 21:17:05 GMT 40.671432 -82.444458 22,150 23 381 1408
2021-05-18 21:16:59 GMT 40.662415 -82.449646 22,025 23 379 1344
2021-05-18 21:16:56 GMT 40.659515 -82.451332 21,975 23 379 1344
2021-05-18 21:16:53 GMT 40.653744 -82.454643 21,900 23 377 1408
2021-05-18 21:16:49 GMT 40.641731 -82.461571 21,800 23 377 1408
2021-05-18 21:16:46 GMT 40.641731 -82.461571 21,725 23 377 1344
2021-05-18 21:16:43 GMT 40.638519 -82.463440 21,675 23 375 1408
2021-05-18 21:16:37 GMT 40.626755 -82.470276 21,475 23 373 1472
2021-05-18 21:16:33 GMT 40.621994 -82.472992 21,350 23 372 0
2021-05-18 21:16:28 GMT 40.613010 -82.478172 21,300 23 372 1472
2021-05-18 21:16:24 GMT 40.605560 -82.482483 21,200 23 371 1408
2021-05-18 21:16:16 GMT 40.595970 -82.488037 21,000 23 369 1408
2021-05-18 21:16:12 GMT 40.587524 -82.492920 20,925 23 367 1664
2021-05-18 21:16:09 GMT 40.584366 -82.494690 20,875 23 368 1536
2021-05-18 21:16:06 GMT 40.578232 -82.498230 20,750 23 367 1664
2021-05-18 21:16:03 GMT 40.573997 -82.500648 20,675 23 367 1664
2021-05-18 21:16:00 GMT 40.570835 -82.502518 20,625 23 367 1728
2021-05-18 21:15:57 GMT 40.563992 -82.506447 20,500 23 366 1792
2021-05-18 21:15:53 GMT 40.558823 -82.509399 20,400 23 365 1920
2021-05-18 21:15:50 GMT 40.554028 -82.512192 20,225 23 366 1984
2021-05-18 21:15:46 GMT 40.547791 -82.515755 20,125 23 366 1920
2021-05-18 21:15:43 GMT 40.542480 -82.518799 20,050 23 365 1856
2021-05-18 21:15:35 GMT 40.531124 -82.525368 19,825 23 365 1856
2021-05-18 21:15:32 GMT 40.526321 -82.528137 19,750 23 365 1920
2021-05-18 21:15:28 GMT 40.518997 -82.532288 19,575 23 367 2176
2021-05-18 21:15:25 GMT 40.515747 -82.534180 19,475 23 366 2240
2021-05-18 21:15:22 GMT 40.511108 -82.536850 19,375 23 367 2176
2021-05-18 21:15:18 GMT 40.505219 -82.540283 19,200 23 367 1984
2021-05-18 21:15:14 GMT 40.497375 -82.544777 19,100 23 367 1728
2021-05-18 21:15:11 GMT 40.494736 -82.546326 19,050 23 367 1728
2021-05-18 21:15:07 GMT 40.487869 -82.550293 18,825 23 364 1728
2021-05-18 21:15:04 GMT 40.476288 -82.556953 18,800 23 364 1728
2021-05-18 21:15:01 GMT 40.476288 -82.556953 18,725 23 364 1728
2021-05-18 21:14:57 GMT 40.470886 -82.560074 18,600 23 364 1728
2021-05-18 21:14:51 GMT 40.463345 -82.564438 18,475 23 362 1728
2021-05-18 21:14:44 GMT 40.451202 -82.571472 18,150 24 360 1664
2021-05-18 21:14:40 GMT 40.446075 -82.574493 18,150 24 360 1728
2021-05-18 21:14:35 GMT 40.438812 -82.579048 18,025 26 359 1792
2021-05-18 21:14:31 GMT 40.432343 -82.583481 17,875 29 358 1856
2021-05-18 21:14:26 GMT 40.424606 -82.589417 17,700 32 356 1856
2021-05-18 21:14:21 GMT 40.417465 -82.595459 17,550 34 355 1856
2021-05-18 21:14:17 GMT 40.413395 -82.599213 17,475 36 354 1856
2021-05-18 21:14:13 GMT 40.407394 -82.605164 17,325 38 352 1728
2021-05-18 21:14:10 GMT 40.404373 -82.608398 17,275 40 352 1728
2021-05-18 21:14:06 GMT 40.399429 -82.614014 17,100 42 350 1728
2021-05-18 21:14:03 GMT 40.394867 -82.619438 17,025 42 349 1664
2021-05-18 21:14:00 GMT 40.392242 -82.622681 16,975 42 348 1664
2021-05-18 21:13:52 GMT 40.382263 -82.634644 16,725 42 346 1920
2021-05-18 21:13:49 GMT 40.379883 -82.637451 16,650 42 346 1984
2021-05-18 21:13:44 GMT 40.372986 -82.645714 16,450 42 345 2176
2021-05-18 21:13:39 GMT 40.367958 -82.651833 16,300 42 344 2240
2021-05-18 21:13:33 GMT 40.360744 -82.660385 16,075 42 344 2240
2021-05-18 21:13:29 GMT 40.355667 -82.666504 15,925 42 344 2176
2021-05-18 21:13:24 GMT 40.348595 -82.674988 15,700 42 343 2176
2021-05-18 21:13:19 GMT 40.343994 -82.680542 15,550 42 343 2304
2021-05-18 21:13:14 GMT 40.338318 -82.687317 15,375 42 341 2048
2021-05-18 21:13:11 GMT 40.333881 -82.692657 15,225 42 342 2048
2021-05-18 21:13:08 GMT 40.331509 -82.695465 15,175 42 341 2048
2021-05-18 21:13:03 GMT 40.324059 -82.704391 14,950 42 340 2240
2021-05-18 21:12:58 GMT 40.320099 -82.709106 14,800 42 340 2368
2021-05-18 21:12:52 GMT 40.312271 -82.718567 14,550 42 340 2496
2021-05-18 21:12:48 GMT 40.307907 -82.723740 14,400 42 340 2432
2021-05-18 21:12:42 GMT 40.299435 -82.733917 14,100 42 339 2304
2021-05-18 21:12:38 GMT 40.296177 -82.737785 14,000 42 339 2304
2021-05-18 21:12:31 GMT 40.288101 -82.747437 13,750 42 337 2176
2021-05-18 21:12:28 GMT 40.284073 -82.752258 13,625 42 336 2112
2021-05-18 21:12:21 GMT 40.275414 -82.762634 13,350 42 334 2112
2021-05-18 21:12:17 GMT 40.271942 -82.766785 13,250 42 334 2176
2021-05-18 21:12:10 GMT 40.263866 -82.776428 12,975 42 332 2624
2021-05-18 21:12:06 GMT 40.259628 -82.781494 12,800 42 331 2624
2021-05-18 21:12:01 GMT 40.253906 -82.788345 12,600 42 331 2368
2021-05-18 21:11:58 GMT 40.249603 -82.793518 12,450 42 331 2368
2021-05-18 21:11:48 GMT 40.238499 -82.806763 12,075 42 330 2112
2021-05-18 21:11:45 GMT 40.236309 -82.809326 12,025 42 330 2176
2021-05-18 21:11:40 GMT 40.230148 -82.816711 11,825 42 329 2048
2021-05-18 21:11:36 GMT 40.224533 -82.823364 11,650 42 327 2112
2021-05-18 21:11:29 GMT 40.216690 -82.832703 11,375 42 326 2432
2021-05-18 21:11:25 GMT 40.213120 -82.836975 11,250 42 325 2432
2021-05-18 21:11:20 GMT 40.206238 -82.845154 10,975 42 324 2496
2021-05-18 21:11:17 GMT 40.203583 -82.848335 10,875 42 324 2432
2021-05-18 21:11:14 GMT 40.201584 -82.850708 10,825 42 323 2304
2021-05-18 21:11:08 GMT 40.193710 -82.860107 10,575 42 320 1792
2021-05-18 21:11:05 GMT 40.190140 -82.864319 10,500 42 318 1600
2021-05-18 21:10:58 GMT 40.184219 -82.871437 10,375 42 313 1344
2021-05-18 21:10:54 GMT 40.179245 -82.877319 10,275 42 308 1344
2021-05-18 21:10:49 GMT 40.173340 -82.884338 10,100 42 303 2112
2021-05-18 21:10:46 GMT 40.170204 -82.888161 9,975 42 302 2496
2021-05-18 21:10:43 GMT 40.168350 -82.890381 9,925 42 300 2560
2021-05-18 21:10:36 GMT 40.160614 -82.899536 9,550 42 299 2560
2021-05-18 21:10:32 GMT 40.157272 -82.903564 9,475 42 297 2496
2021-05-18 21:10:25 GMT 40.148300 -82.914185 9,100 42 294 2496
2021-05-18 21:10:22 GMT 40.146881 -82.915878 9,050 42 293 2624
2021-05-18 21:10:18 GMT 40.141762 -82.921997 8,800 42 292 2880
2021-05-18 21:10:13 GMT 40.136627 -82.928040 8,550 42 291 2816
2021-05-18 21:10:07 GMT 40.131409 -82.934265 8,325 42 290 2752
2021-05-18 21:10:02 GMT 40.126602 -82.940002 8,100 42 290 2752
2021-05-18 21:09:54 GMT 40.117786 -82.950523 7,700 42 286 2688
2021-05-18 21:09:51 GMT 40.116203 -82.952393 7,625 42 285 2624
2021-05-18 21:09:46 GMT 40.110489 -82.959229 7,375 42 283 2496
2021-05-18 21:09:42 GMT 40.105957 -82.964722 7,175 42 281 2560
2021-05-18 21:09:34 GMT 40.098888 -82.973244 6,825 42 278 2752
2021-05-18 21:09:31 GMT 40.096344 -82.976257 6,725 42 277 2816
2021-05-18 21:09:26 GMT 40.091537 -82.982117 6,500 43 274 2560
2021-05-18 21:09:23 GMT 40.087902 -82.986603 6,350 43 274 2432
2021-05-18 21:09:20 GMT 40.086731 -82.988098 6,275 43 273 2432
2021-05-18 21:09:10 GMT 40.077427 -82.999771 5,775 43 270 2816
2021-05-18 21:09:03 GMT 40.070351 -83.007202 5,400 30 265 2304
2021-05-18 21:09:00 GMT 40.067184 -83.009644 5,400 30 265 2304
2021-05-18 21:08:53 GMT 40.058807 -83.014130 5,050 14 259 1600
2021-05-18 21:08:50 GMT 40.055035 -83.015381 5,000 10 257 1408
2021-05-18 21:08:45 GMT 40.049149 -83.016174 4,875 0 251 1664
2021-05-18 21:08:42 GMT 40.046860 -83.016235 4,775 357 247 1664
2021-05-18 21:08:39 GMT 40.043396 -83.016006 4,725 355 245 1856
2021-05-18 21:08:34 GMT 40.037670 -83.015007 4,550 349 239 1536
2021-05-18 21:08:31 GMT 40.033295 -83.013756 4,475 347 234 1792
2021-05-18 21:08:28 GMT 40.031620 -83.013260 4,400 345 232 2432
2021-05-18 21:08:23 GMT 40.026730 -83.011383 3,875 342 228 3264
2021-05-18 21:08:19 GMT 40.021408 -83.008545 3,875 333 227 3392
2021-05-18 21:08:14 GMT 40.017151 -83.005005 3,575 314 229 2944
2021-05-18 21:08:08 GMT 40.013123 -82.999939 3,300 304 229 2240
2021-05-18 21:07:59 GMT 40.007950 -82.987915 2,900 290 224 2944
2021-05-18 21:07:56 GMT 40.007179 -82.984543 2,775 283 223 3136
2021-05-18 21:07:49 GMT 40.006062 -82.976112 2,325 275 218 1536
2021-05-18 21:07:45 GMT 40.005737 -82.970314 2,325 274 217 1344
2021-05-18 21:07:40 GMT 40.005432 -82.964722 2,250 274 214 1216
2021-05-18 21:07:36 GMT 40.005203 -82.959106 2,175 274 207 960
2021-05-18 21:07:30 GMT 40.004929 -82.952332 2,125 273 195 320
2021-05-18 21:07:27 GMT 40.004478 -82.940910 1,025 273 182 1216
2021-05-18 21:07:20 GMT 40.004478 -82.940910 1,925 274 176 1472
2021-05-18 21:07:15 GMT 40.004154 -82.934669 1,825 274 168 1152
2021-05-18 21:07:10 GMT 40.004013 -82.930550 1,725 272 162 1280
2021-05-18 21:07:06 GMT 40.003922 -82.926300 1,600 273 157 1984
2021-05-18 21:07:00 GMT 40.003689 -82.920624 1,375 273 156 2368
2021-05-18 21:06:49 GMT 40.003326 -82.911072 950 274 156 2816
2021-05-18 21:06:45 GMT 40.003128 -82.907074 750 275 157 2816
2021-05-18 21:06:40 GMT 40.002804 -82.900894 525 274 161 896
2021-05-18 21:06:28 GMT 40.002293 -82.891281 500 275 131 0
2021-05-18 21:06:19 GMT 40.001919 -82.885101 500 275 92 0
2021-05-18 21:06:07 GMT 40.001663 -82.880310 0 272 35
2021-05-18 21:05:59 GMT 40.001629 -82.879501 0 275 5
2021-05-18 21:05:48 GMT 40.001575 -82.879318 0 0 5
2021-05-18 21:05:38 GMT 40.001266 -82.879349 0 5 9
2021-05-18 21:05:27 GMT 40.000900 -82.879410 0 11 5
2021-05-18 21:03:27 GMT 40.000671 -82.879501 0 87 2
2021-05-18 21:03:22 GMT 40.000664 -82.879562 0 95 4
2021-05-18 21:03:14 GMT 40.000687 -82.879814 0 95 7
2021-05-18 21:03:03 GMT 40.000717 -82.880310 0 95 9
2021-05-18 21:02:53 GMT 40.000763 -82.881149 0 92 12
2021-05-18 21:02:39 GMT 40.000797 -82.882019 0 95 17
2021-05-18 21:02:34 GMT 40.000832 -82.882523 0 95 17
2021-05-18 21:02:24 GMT 40.000889 -82.883514 0 95 15
2021-05-18 21:02:11 GMT 40.000954 -82.884560 0 95 13
2021-05-18 21:02:02 GMT 40.000980 -82.885162 0 95 11
2021-05-18 21:01:53 GMT 40.001011 -82.885681 0 92 8
2021-05-18 21:01:43 GMT 40.001026 -82.886108 0 73 6
2021-05-18 21:01:29 GMT 40.000843 -82.886383 0 14 6
2021-05-18 21:01:19 GMT 40.000557 -82.886444 0 19 7
2021-05-18 21:01:10 GMT 40.000328 -82.886658 0 56 8
2021-05-18 20:58:36 GMT 40.000210 -82.887177 0 109 0
2021-05-18 20:58:27 GMT 40.000183 -82.887100 0 112 3
2021-05-18 20:58:18 GMT 40.000126 -82.886978 0 129 3
2021-05-18 20:57:57 GMT 39.999893 -82.886848 0 165 3
2021-05-18 20:57:40 GMT 39.999722 -82.886780 0 163 0
2021-05-18 20:57:36 GMT 39.999687 -82.886765 0 163 0
2021-05-18 20:57:25 GMT 39.999653 -82.886749 0 163 0
2021-05-18 20:57:06 GMT 39.999649 -82.886757 0 163 0
2021-05-18 20:56:52 GMT 39.999653 -82.886749 0 163 0
2021-05-18 20:56:31 GMT 39.999649 -82.886757 0 163 0
2021-05-18 20:56:21 GMT 39.999653 -82.886765 0 163 0
2021-05-18 20:55:41 GMT 39.999649 -82.886757 0 163 0
2021-05-18 20:55:31 GMT 39.999653 -82.886765 0 163 0
2021-05-18 20:55:08 GMT 39.999649 -82.886757 0 163 0
2021-05-18 20:54:56 GMT 39.999641 -82.886765 0 163 0
2021-05-18 20:54:51 GMT 39.999649 -82.886757 0 163 0
2021-05-18 20:54:42 GMT 39.999653 -82.886765 0 163 0

Making use of Plane Finder data

You are free to use the raw flight data, aircraft information and images provided in this report for your own purposes provided the data is correctly attributed to Plane Finder. We ask that you please credit Plane Finder and link to planefinder.net in close proximity to the content.

Optionally one of the following logos (no smaller then 150x24px) can be used and must link to planefinder.net

Embedding the Plane Finder map

You are welcome to embed the Plane Finder playback map on your website to offer visitors a more interactive experience. We suggest using the following HTML code:

<iframe src="//planefinder.net/data/report/DL5623-N357FC-7700-squawk-2021-05-18/map" width="800" height="600" seamless="seamless"></iframe>

Where our data comes from

Plane Finder has a global network of data feeds and antenna radars that receive data broadcast directly from aircraft. The primary technologies used are ADS-B and MLAT. We also show feeds from the FAA and a FLARM glider feed.

Click here to find out more about the Plane Finder network.

How we collect our data